ADB4591 CYMX-KLAS
Flight info
| Callsign | ADB4591 |
|---|---|
| Flight time | 5h 52m |
| Altitude | 30000 |
| Route | YOW DCT YEE DCT FNT DCT PMM DCT JOT DCT IOW DCT LNK/N0456F320 DCT GLD DCT HBU DCT DVC DCT PGA BLAID2 |
| Aircraft | A225/J-SCDFGHIRUWXYZ/LB1 |
Departure
| Time | 2026-04-18 21:10 |
|---|---|
| Airport | Montreal Mirabel International Airport (CYMX) |
Arrival
| Time | 2026-04-19 03:03 |
|---|---|
| Airport | Harry Reid International Airport (KLAS) |
| Time | Latitude | Longitude | Altitude | Speed | Heading |
|---|---|---|---|---|---|
| 2026-04-18 20:51 | 45.67958 | -74.04342 | 283 ft | 0 kts | 279° |
| 2026-04-18 20:58 | 45.67955 | -74.04315 | 286 ft | 4 kts | 279° |
| 2026-04-18 20:58 | 45.67952 | -74.04279 | 285 ft | 4 kts | 254° |
| 2026-04-18 20:58 | 45.67965 | -74.04256 | 288 ft | 4 kts | 210° |
| 2026-04-18 20:58 | 45.67988 | -74.04237 | 288 ft | 3 kts | 210° |
| 2026-04-18 20:59 | 45.67992 | -74.04234 | 283 ft | 0 kts | 210° |
| 2026-04-18 21:00 | 45.67991 | -74.04235 | 283 ft | 0 kts | 209° |
| 2026-04-18 21:01 | 45.67990 | -74.04235 | 283 ft | 0 kts | 209° |
| 2026-04-18 21:01 | 45.67980 | -74.04243 | 286 ft | 3 kts | 205° |
| 2026-04-18 21:01 | 45.67951 | -74.04253 | 287 ft | 5 kts | 187° |
| 2026-04-18 21:01 | 45.67903 | -74.04260 | 289 ft | 9 kts | 185° |
| 2026-04-18 21:02 | 45.67827 | -74.04270 | 286 ft | 13 kts | 184° |
| 2026-04-18 21:02 | 45.67605 | -74.04310 | 284 ft | 18 kts | 188° |
| 2026-04-18 21:02 | 45.67488 | -74.04335 | 290 ft | 16 kts | 188° |
| 2026-04-18 21:03 | 45.67386 | -74.04356 | 288 ft | 14 kts | 188° |
| 2026-04-18 21:03 | 45.67299 | -74.04374 | 290 ft | 12 kts | 188° |
| 2026-04-18 21:03 | 45.67226 | -74.04389 | 290 ft | 10 kts | 187° |
| 2026-04-18 21:03 | 45.67166 | -74.04400 | 286 ft | 8 kts | 187° |
| 2026-04-18 21:04 | 45.67119 | -74.04408 | 290 ft | 6 kts | 180° |
| 2026-04-18 21:04 | 45.67093 | -74.04399 | 287 ft | 2 kts | 156° |
| 2026-04-18 21:04 | 45.67078 | -74.04387 | 287 ft | 3 kts | 144° |
| 2026-04-18 21:04 | 45.67068 | -74.04372 | 287 ft | 2 kts | 126° |
| 2026-04-18 21:05 | 45.67064 | -74.04361 | 287 ft | 0 kts | 112° |
| 2026-04-18 21:05 | 45.67059 | -74.04337 | 287 ft | 6 kts | 102° |
| 2026-04-18 21:05 | 45.67046 | -74.04237 | 293 ft | 11 kts | 100° |
| 2026-04-18 21:05 | 45.67009 | -74.04173 | 288 ft | 8 kts | 160° |
| 2026-04-18 21:06 | 45.66955 | -74.04172 | 293 ft | 9 kts | 190° |
| 2026-04-18 21:06 | 45.66880 | -74.04191 | 291 ft | 13 kts | 189° |
| 2026-04-18 21:06 | 45.66777 | -74.04213 | 293 ft | 17 kts | 188° |
| 2026-04-18 21:06 | 45.66653 | -74.04244 | 297 ft | 18 kts | 194° |
| 2026-04-18 21:07 | 45.66595 | -74.04350 | 290 ft | 13 kts | 265° |
| 2026-04-18 21:07 | 45.66610 | -74.04470 | 290 ft | 4 kts | 280° |
| 2026-04-18 21:08 | 45.66613 | -74.04492 | 294 ft | 15 kts | 280° |
| 2026-04-18 21:08 | 45.66659 | -74.04928 | 288 ft | 73 kts | 279° |
| 2026-04-18 21:09 | 45.66753 | -74.05900 | 280 ft | 122 kts | 281° |
| 2026-04-18 21:09 | 45.66801 | -74.07133 | 271 ft | 84 kts | 145° |
| 2026-04-18 21:09 | 45.66790 | -74.07184 | 274 ft | 2 kts | 110° |
| 2026-04-18 21:09 | 45.66885 | -74.07160 | 274 ft | 0 kts | 89° |
| 2026-04-18 21:10 | 45.66877 | -74.07018 | 275 ft | 40 kts | 98° |
| 2026-04-18 21:10 | 45.66773 | -74.06429 | 280 ft | 79 kts | 95° |
| 2026-04-18 21:10 | 45.66647 | -74.05831 | 286 ft | 0 kts | 83° |
| 2026-04-18 21:10 | 45.66707 | -74.04922 | 1344 ft | 173 kts | 91° |
| 2026-04-18 21:11 | 45.66808 | -74.03467 | 2367 ft | 166 kts | 101° |
| 2026-04-18 21:11 | 45.66666 | -74.01762 | 954 ft | 162 kts | 130° |
| 2026-04-18 21:11 | 45.66089 | -74.01224 | 1254 ft | 169 kts | 168° |
| 2026-04-18 21:11 | 45.64936 | -74.01121 | 1773 ft | 158 kts | 177° |
| 2026-04-18 21:12 | 45.63867 | -74.01180 | 2203 ft | 151 kts | 180° |
| 2026-04-18 21:12 | 45.62778 | -74.01379 | 2331 ft | 177 kts | 192° |
| 2026-04-18 21:12 | 45.61628 | -74.02463 | 2369 ft | 221 kts | 223° |
| 2026-04-18 21:12 | 45.60974 | -74.04510 | 3224 ft | 234 kts | 252° |
| 2026-04-18 21:13 | 45.61056 | -74.06831 | 4352 ft | 233 kts | 271° |
| 2026-04-18 21:13 | 45.61317 | -74.09040 | 5400 ft | 218 kts | 266° |
| 2026-04-18 21:13 | 45.61304 | -74.11265 | 5723 ft | 235 kts | 257° |
| 2026-04-18 21:13 | 45.61039 | -74.13584 | 6414 ft | 234 kts | 255° |
| 2026-04-18 21:14 | 45.60796 | -74.15897 | 7139 ft | 238 kts | 257° |
| 2026-04-18 21:14 | 45.60594 | -74.18261 | 7833 ft | 240 kts | 258° |
| 2026-04-18 21:14 | 45.60414 | -74.20648 | 8475 ft | 245 kts | 258° |
| 2026-04-18 21:14 | 45.60254 | -74.23083 | 9169 ft | 246 kts | 258° |
| 2026-04-18 21:15 | 45.60120 | -74.25522 | 9886 ft | 246 kts | 259° |
| 2026-04-18 21:15 | 45.60017 | -74.27958 | 10547 ft | 247 kts | 261° |
| 2026-04-18 21:15 | 45.59938 | -74.30423 | 11155 ft | 249 kts | 261° |
| 2026-04-18 21:15 | 45.59883 | -74.32930 | 11499 ft | 262 kts | 262° |
| 2026-04-18 21:16 | 45.59833 | -74.35647 | 11525 ft | 286 kts | 263° |
| 2026-04-18 21:16 | 45.59790 | -74.38605 | 11563 ft | 308 kts | 263° |
| 2026-04-18 21:16 | 45.59759 | -74.41765 | 11760 ft | 323 kts | 264° |
| 2026-04-18 21:16 | 45.59757 | -74.44926 | 12433 ft | 323 kts | 264° |
| 2026-04-18 21:17 | 45.59804 | -74.48150 | 12976 ft | 327 kts | 266° |
| 2026-04-18 21:17 | 45.59895 | -74.51393 | 13633 ft | 327 kts | 266° |
| 2026-04-18 21:17 | 45.60014 | -74.54648 | 14105 ft | 330 kts | 268° |
| 2026-04-18 21:17 | 45.60166 | -74.57927 | 14589 ft | 332 kts | 269° |
| 2026-04-18 21:18 | 45.60352 | -74.61233 | 15090 ft | 335 kts | 269° |
| 2026-04-18 21:18 | 45.60573 | -74.64562 | 15545 ft | 338 kts | 270° |
| 2026-04-18 21:18 | 45.60822 | -74.67906 | 15980 ft | 339 kts | 270° |
| 2026-04-18 21:18 | 45.60717 | -74.71246 | 16345 ft | 335 kts | 257° |
| 2026-04-18 21:19 | 45.60169 | -74.74477 | 16740 ft | 336 kts | 251° |
| 2026-04-18 21:19 | 45.59529 | -74.77699 | 17152 ft | 338 kts | 252° |
| 2026-04-18 21:19 | 45.58993 | -74.80982 | 17524 ft | 342 kts | 256° |
| 2026-04-18 21:19 | 45.58607 | -74.84350 | 17905 ft | 345 kts | 258° |
| 2026-04-18 21:20 | 45.58361 | -74.86587 | 18116 ft | 346 kts | 257° |
| 2026-04-18 21:20 | 45.57919 | -74.89966 | 18353 ft | 348 kts | 256° |
| 2026-04-18 21:20 | 45.57429 | -74.93356 | 18646 ft | 350 kts | 256° |
| 2026-04-18 21:20 | 45.56961 | -74.96777 | 18929 ft | 351 kts | 257° |
| 2026-04-18 21:21 | 45.56525 | -75.00214 | 19163 ft | 353 kts | 257° |
| 2026-04-18 21:21 | 45.56063 | -75.03666 | 19425 ft | 355 kts | 256° |
| 2026-04-18 21:21 | 45.55590 | -75.07119 | 19820 ft | 354 kts | 256° |
| 2026-04-18 21:21 | 45.55124 | -75.10579 | 20055 ft | 356 kts | 256° |
| 2026-04-18 21:22 | 45.54664 | -75.14067 | 20288 ft | 358 kts | 256° |
| 2026-04-18 21:22 | 45.54200 | -75.17521 | 20513 ft | 361 kts | 256° |
| 2026-04-18 21:22 | 45.53713 | -75.21071 | 20708 ft | 361 kts | 255° |
| 2026-04-18 21:22 | 45.53233 | -75.24560 | 20948 ft | 364 kts | 256° |
| 2026-04-18 21:23 | 45.52758 | -75.28111 | 21194 ft | 366 kts | 256° |
| 2026-04-18 21:23 | 45.52268 | -75.31695 | 21417 ft | 368 kts | 256° |
| 2026-04-18 21:23 | 45.51772 | -75.35289 | 21665 ft | 370 kts | 256° |
| 2026-04-18 21:23 | 45.51282 | -75.38899 | 21897 ft | 372 kts | 256° |
| 2026-04-18 21:24 | 45.50781 | -75.42533 | 22145 ft | 374 kts | 256° |
| 2026-04-18 21:24 | 45.50279 | -75.46175 | 22362 ft | 376 kts | 256° |
| 2026-04-18 21:24 | 45.49776 | -75.49841 | 22700 ft | 376 kts | 255° |
| 2026-04-18 21:24 | 45.49277 | -75.53488 | 22958 ft | 374 kts | 255° |
| 2026-04-18 21:25 | 45.48767 | -75.57145 | 23035 ft | 380 kts | 255° |
| 2026-04-18 21:25 | 45.48256 | -75.60786 | 23321 ft | 379 kts | 255° |
| 2026-04-18 21:25 | 45.47751 | -75.64449 | 23381 ft | 376 kts | 255° |
| 2026-04-18 21:25 | 45.47236 | -75.68115 | 23384 ft | 380 kts | 255° |
| 2026-04-18 21:26 | 45.46698 | -75.71812 | 23559 ft | 381 kts | 255° |
| 2026-04-18 21:26 | 45.46184 | -75.75522 | 23767 ft | 383 kts | 255° |
| 2026-04-18 21:26 | 45.45676 | -75.79248 | 23954 ft | 382 kts | 255° |
| 2026-04-18 21:26 | 45.45175 | -75.82824 | 25003 ft | 358 kts | 255° |
| 2026-04-18 21:27 | 45.44669 | -75.86322 | 25020 ft | 364 kts | 254° |
| 2026-04-18 21:27 | 45.44145 | -75.89860 | 25198 ft | 364 kts | 252° |
| 2026-04-18 21:27 | 45.43464 | -75.93313 | 25491 ft | 361 kts | 250° |
| 2026-04-18 21:27 | 45.42768 | -75.96743 | 25660 ft | 362 kts | 250° |
| 2026-04-18 21:28 | 45.42074 | -76.00197 | 25846 ft | 363 kts | 250° |
| 2026-04-18 21:28 | 45.41986 | -76.00634 | 25871 ft | 363 kts | 250° |
| 2026-04-18 21:28 | 45.41906 | -76.01034 | 25898 ft | 363 kts | 250° |
| 2026-04-18 21:28 | 45.41218 | -76.04446 | 26066 ft | 364 kts | 250° |
| 2026-04-18 21:29 | 45.40516 | -76.07909 | 26205 ft | 365 kts | 250° |
| 2026-04-18 21:29 | 45.39812 | -76.11393 | 26387 ft | 366 kts | 250° |
| 2026-04-18 21:29 | 45.39107 | -76.14882 | 26544 ft | 367 kts | 250° |
| 2026-04-18 21:29 | 45.38398 | -76.18368 | 26710 ft | 368 kts | 250° |
| 2026-04-18 21:30 | 45.37684 | -76.21873 | 26845 ft | 369 kts | 250° |
| 2026-04-18 21:30 | 45.36969 | -76.25379 | 26980 ft | 369 kts | 250° |
| 2026-04-18 21:30 | 45.36274 | -76.28799 | 27736 ft | 353 kts | 249° |
| 2026-04-18 21:30 | 45.35581 | -76.32176 | 27729 ft | 358 kts | 249° |
| 2026-04-18 21:31 | 45.34877 | -76.35583 | 27888 ft | 359 kts | 249° |
| 2026-04-18 21:31 | 45.34180 | -76.38982 | 28031 ft | 360 kts | 249° |
| 2026-04-18 21:31 | 45.33477 | -76.42405 | 28141 ft | 361 kts | 249° |
| 2026-04-18 21:31 | 45.32772 | -76.45828 | 28254 ft | 362 kts | 249° |
| 2026-04-18 21:32 | 45.32062 | -76.49264 | 28373 ft | 362 kts | 249° |
| 2026-04-18 21:32 | 45.31351 | -76.52698 | 28505 ft | 363 kts | 249° |
| 2026-04-18 21:32 | 45.30647 | -76.56096 | 28622 ft | 364 kts | 249° |
| 2026-04-18 21:33 | 45.29213 | -76.63002 | 28837 ft | 365 kts | 249° |
| 2026-04-18 21:33 | 45.28491 | -76.66465 | 28943 ft | 366 kts | 249° |
| 2026-04-18 21:33 | 45.27767 | -76.69936 | 29056 ft | 367 kts | 249° |
| 2026-04-18 21:34 | 45.26309 | -76.76904 | 29255 ft | 368 kts | 249° |
| 2026-04-18 21:34 | 45.25576 | -76.80389 | 29397 ft | 369 kts | 248° |
| 2026-04-18 21:34 | 45.24842 | -76.83879 | 29487 ft | 370 kts | 248° |
| 2026-04-18 21:34 | 45.24107 | -76.87378 | 29604 ft | 370 kts | 248° |
| 2026-04-18 21:35 | 45.23371 | -76.90869 | 29769 ft | 369 kts | 248° |
| 2026-04-18 21:35 | 45.21890 | -76.97861 | 29708 ft | 375 kts | 248° |
| 2026-04-18 21:36 | 45.20436 | -77.04771 | 29681 ft | 352 kts | 248° |
| 2026-04-18 21:36 | 45.19742 | -77.08049 | 29676 ft | 341 kts | 248° |
| 2026-04-18 21:36 | 45.19053 | -77.11256 | 29710 ft | 341 kts | 248° |
| 2026-04-18 21:37 | 45.17666 | -77.17735 | 29725 ft | 346 kts | 248° |
| 2026-04-18 21:37 | 45.16259 | -77.24302 | 29747 ft | 351 kts | 247° |
| 2026-04-18 21:37 | 45.15563 | -77.27563 | 29712 ft | 339 kts | 248° |
| 2026-04-18 21:38 | 45.14888 | -77.30750 | 29726 ft | 336 kts | 247° |
| 2026-04-18 21:38 | 45.13500 | -77.37132 | 29723 ft | 340 kts | 247° |
| 2026-04-18 21:39 | 45.12128 | -77.43534 | 29724 ft | 339 kts | 247° |
| 2026-04-18 21:39 | 45.10735 | -77.49910 | 29722 ft | 340 kts | 247° |
| 2026-04-18 21:40 | 45.09354 | -77.56292 | 29714 ft | 339 kts | 247° |
| 2026-04-18 21:40 | 45.07974 | -77.62617 | 29726 ft | 338 kts | 247° |
| 2026-04-18 21:41 | 45.06577 | -77.68958 | 29731 ft | 336 kts | 246° |
| 2026-04-18 21:41 | 45.05221 | -77.75217 | 29721 ft | 331 kts | 246° |
| 2026-04-18 21:42 | 45.03840 | -77.81449 | 29730 ft | 333 kts | 246° |
| 2026-04-18 21:42 | 45.02468 | -77.87691 | 29723 ft | 331 kts | 246° |
| 2026-04-18 21:43 | 45.01083 | -77.93913 | 29720 ft | 332 kts | 246° |
| 2026-04-18 21:43 | 44.99722 | -78.00091 | 29717 ft | 329 kts | 246° |
| 2026-04-18 21:44 | 44.98340 | -78.06280 | 29725 ft | 331 kts | 246° |
| 2026-04-18 21:44 | 44.96960 | -78.12466 | 29718 ft | 330 kts | 246° |
| 2026-04-18 21:45 | 44.95574 | -78.18664 | 29696 ft | 331 kts | 246° |
| 2026-04-18 21:45 | 44.94171 | -78.24902 | 29729 ft | 336 kts | 246° |
| 2026-04-18 21:46 | 44.92744 | -78.31245 | 29740 ft | 342 kts | 246° |
| 2026-04-18 21:46 | 44.91300 | -78.37646 | 29727 ft | 340 kts | 246° |
| 2026-04-18 21:47 | 44.89862 | -78.43991 | 29720 ft | 340 kts | 246° |
| 2026-04-18 21:47 | 44.88428 | -78.50307 | 29752 ft | 340 kts | 246° |
| 2026-04-18 21:48 | 44.87000 | -78.56582 | 29737 ft | 329 kts | 246° |
| 2026-04-18 21:48 | 44.85597 | -78.62703 | 29735 ft | 329 kts | 246° |
| 2026-04-18 21:49 | 44.84195 | -78.68827 | 29748 ft | 328 kts | 246° |
| 2026-04-18 21:49 | 44.82791 | -78.74943 | 29733 ft | 328 kts | 246° |
| 2026-04-18 21:50 | 44.81375 | -78.81075 | 29747 ft | 329 kts | 246° |
| 2026-04-18 21:50 | 44.79955 | -78.87233 | 29758 ft | 330 kts | 246° |
| 2026-04-18 21:51 | 44.78538 | -78.93343 | 29762 ft | 330 kts | 246° |
| 2026-04-18 21:51 | 44.77123 | -78.99429 | 29765 ft | 320 kts | 246° |
| 2026-04-18 21:52 | 44.75746 | -79.05331 | 29769 ft | 318 kts | 245° |
| 2026-04-18 21:52 | 44.74367 | -79.11244 | 29768 ft | 317 kts | 246° |
| 2026-04-18 21:53 | 44.72984 | -79.17143 | 29769 ft | 317 kts | 246° |
| 2026-04-18 21:53 | 44.71601 | -79.23031 | 29775 ft | 317 kts | 246° |
| 2026-04-18 21:54 | 44.70218 | -79.28907 | 29782 ft | 317 kts | 246° |
| 2026-04-18 21:54 | 44.68837 | -79.34755 | 29741 ft | 318 kts | 246° |
| 2026-04-18 21:55 | 44.67433 | -79.40672 | 29814 ft | 318 kts | 246° |
| 2026-04-18 21:55 | 44.66074 | -79.46429 | 29764 ft | 308 kts | 245° |
| 2026-04-18 21:56 | 44.64704 | -79.52151 | 29780 ft | 309 kts | 245° |
| 2026-04-18 21:56 | 44.63346 | -79.57865 | 29786 ft | 309 kts | 245° |
| 2026-04-18 21:57 | 44.61979 | -79.63569 | 29785 ft | 309 kts | 245° |
| 2026-04-18 21:57 | 44.60604 | -79.69302 | 29784 ft | 309 kts | 246° |
| 2026-04-18 21:58 | 44.59244 | -79.74966 | 29780 ft | 308 kts | 245° |
| 2026-04-18 21:58 | 44.57757 | -79.80566 | 29835 ft | 301 kts | 238° |
| 2026-04-18 21:58 | 44.56778 | -79.83121 | 29813 ft | 294 kts | 237° |
| 2026-04-18 21:59 | 44.55789 | -79.85610 | 29810 ft | 291 kts | 237° |
| 2026-04-18 21:59 | 44.54827 | -79.88118 | 29795 ft | 292 kts | 238° |
| 2026-04-18 21:59 | 44.53875 | -79.90643 | 29775 ft | 294 kts | 238° |
| 2026-04-18 21:59 | 44.52909 | -79.93179 | 29803 ft | 296 kts | 237° |
| 2026-04-18 22:00 | 44.51927 | -79.95732 | 29807 ft | 299 kts | 238° |
| 2026-04-18 22:00 | 44.49954 | -80.00883 | 29805 ft | 302 kts | 238° |
| 2026-04-18 22:00 | 44.48966 | -80.03463 | 29807 ft | 299 kts | 238° |
| 2026-04-18 22:01 | 44.47979 | -80.06035 | 29804 ft | 300 kts | 237° |
| 2026-04-18 22:01 | 44.46990 | -80.08605 | 29807 ft | 300 kts | 238° |
| 2026-04-18 22:01 | 44.45998 | -80.11184 | 29805 ft | 300 kts | 238° |
| 2026-04-18 22:01 | 44.45007 | -80.13757 | 29805 ft | 300 kts | 238° |
| 2026-04-18 22:02 | 44.44015 | -80.16331 | 29808 ft | 300 kts | 237° |
| 2026-04-18 22:02 | 44.43023 | -80.18900 | 29833 ft | 299 kts | 237° |
| 2026-04-18 22:02 | 44.42050 | -80.21426 | 29799 ft | 291 kts | 237° |
| 2026-04-18 22:02 | 44.41093 | -80.23900 | 29795 ft | 289 kts | 237° |
| 2026-04-18 22:03 | 44.40132 | -80.26378 | 29805 ft | 290 kts | 237° |
| 2026-04-18 22:03 | 44.39167 | -80.28868 | 29808 ft | 291 kts | 237° |
| 2026-04-18 22:03 | 44.38207 | -80.31349 | 29808 ft | 290 kts | 237° |
| 2026-04-18 22:03 | 44.37259 | -80.33793 | 29814 ft | 291 kts | 237° |
| 2026-04-18 22:04 | 44.36281 | -80.36309 | 29808 ft | 291 kts | 237° |
| 2026-04-18 22:04 | 44.35323 | -80.38774 | 29813 ft | 293 kts | 237° |
| 2026-04-18 22:04 | 44.34332 | -80.41321 | 29809 ft | 296 kts | 237° |
| 2026-04-18 22:04 | 44.33355 | -80.43831 | 29805 ft | 300 kts | 237° |
| 2026-04-18 22:05 | 44.32353 | -80.46404 | 29822 ft | 303 kts | 237° |
| 2026-04-18 22:05 | 44.30317 | -80.51620 | 29819 ft | 309 kts | 237° |
| 2026-04-18 22:06 | 44.28273 | -80.56853 | 29835 ft | 304 kts | 238° |
| 2026-04-18 22:06 | 44.27264 | -80.59429 | 29822 ft | 300 kts | 238° |
| 2026-04-18 22:06 | 44.26262 | -80.61982 | 29835 ft | 299 kts | 238° |
| 2026-04-18 22:07 | 44.24255 | -80.67096 | 29830 ft | 300 kts | 238° |
| 2026-04-18 22:07 | 44.22251 | -80.72187 | 29786 ft | 303 kts | 237° |
| 2026-04-18 22:08 | 44.20207 | -80.77378 | 29849 ft | 308 kts | 237° |
| 2026-04-18 22:08 | 44.18133 | -80.82636 | 29809 ft | 310 kts | 237° |
| 2026-04-18 22:09 | 44.16063 | -80.87873 | 29850 ft | 308 kts | 237° |
| 2026-04-18 22:09 | 44.13991 | -80.93103 | 29872 ft | 308 kts | 237° |
| 2026-04-18 22:09 | 44.12970 | -80.95685 | 29837 ft | 300 kts | 237° |
| 2026-04-18 22:10 | 44.12306 | -80.97360 | 29853 ft | 297 kts | 237° |
| 2026-04-18 22:10 | 44.11303 | -80.99880 | 29858 ft | 298 kts | 237° |
| 2026-04-18 22:10 | 44.10293 | -81.02416 | 29842 ft | 299 kts | 237° |
| 2026-04-18 22:10 | 44.09288 | -81.04943 | 29830 ft | 299 kts | 237° |
| 2026-04-18 22:11 | 44.08281 | -81.07475 | 29831 ft | 299 kts | 237° |
| 2026-04-18 22:11 | 44.07272 | -81.10007 | 29802 ft | 299 kts | 237° |
| 2026-04-18 22:11 | 44.06263 | -81.12538 | 29833 ft | 301 kts | 236° |
| 2026-04-18 22:12 | 44.03179 | -81.20254 | 29833 ft | 304 kts | 236° |
| 2026-04-18 22:12 | 44.01125 | -81.25379 | 29845 ft | 304 kts | 236° |
| 2026-04-18 22:13 | 43.99065 | -81.30512 | 29868 ft | 303 kts | 238° |
| 2026-04-18 22:13 | 43.98049 | -81.33046 | 29834 ft | 297 kts | 238° |
| 2026-04-18 22:13 | 43.97051 | -81.35534 | 29833 ft | 295 kts | 237° |
| 2026-04-18 22:14 | 43.96038 | -81.38039 | 29846 ft | 297 kts | 237° |
| 2026-04-18 22:14 | 43.95031 | -81.40535 | 29849 ft | 296 kts | 237° |
| 2026-04-18 22:14 | 43.94023 | -81.43032 | 29847 ft | 296 kts | 237° |
| 2026-04-18 22:14 | 43.93015 | -81.45534 | 29840 ft | 297 kts | 237° |
| 2026-04-18 22:15 | 43.92011 | -81.48037 | 29816 ft | 296 kts | 237° |
| 2026-04-18 22:15 | 43.91018 | -81.50494 | 29818 ft | 296 kts | 237° |
| 2026-04-18 22:15 | 43.90003 | -81.52998 | 29787 ft | 298 kts | 236° |
| 2026-04-18 22:15 | 43.88984 | -81.55510 | 29813 ft | 301 kts | 236° |
| 2026-04-18 22:16 | 43.86908 | -81.60629 | 29821 ft | 307 kts | 237° |
| 2026-04-18 22:16 | 43.84812 | -81.65795 | 29889 ft | 305 kts | 237° |
| 2026-04-18 22:17 | 43.82754 | -81.70851 | 29813 ft | 296 kts | 237° |
| 2026-04-18 22:17 | 43.81743 | -81.73330 | 29820 ft | 294 kts | 237° |
| 2026-04-18 22:17 | 43.80731 | -81.75808 | 29824 ft | 296 kts | 237° |
| 2026-04-18 22:18 | 43.79732 | -81.78256 | 29826 ft | 295 kts | 237° |
| 2026-04-18 22:18 | 43.78723 | -81.80726 | 29835 ft | 295 kts | 237° |
| 2026-04-18 22:18 | 43.77713 | -81.83197 | 29834 ft | 295 kts | 237° |
| 2026-04-18 22:18 | 43.76702 | -81.85670 | 29835 ft | 295 kts | 237° |
| 2026-04-18 22:19 | 43.75688 | -81.88145 | 29835 ft | 295 kts | 237° |
| 2026-04-18 22:19 | 43.74678 | -81.90607 | 29835 ft | 295 kts | 237° |
| 2026-04-18 22:19 | 43.73660 | -81.93088 | 29808 ft | 296 kts | 237° |
| 2026-04-18 22:19 | 43.72642 | -81.95570 | 29834 ft | 298 kts | 237° |
| 2026-04-18 22:20 | 43.70568 | -82.00607 | 29839 ft | 305 kts | 237° |
| 2026-04-18 22:20 | 43.68481 | -82.05676 | 29832 ft | 301 kts | 237° |
| 2026-04-18 22:21 | 43.66401 | -82.10712 | 29830 ft | 302 kts | 237° |
| 2026-04-18 22:21 | 43.64316 | -82.15757 | 29830 ft | 302 kts | 237° |
| 2026-04-18 22:22 | 43.62230 | -82.20788 | 29830 ft | 302 kts | 237° |
| 2026-04-18 22:22 | 43.60156 | -82.25791 | 29830 ft | 302 kts | 237° |
| 2026-04-18 22:23 | 43.58063 | -82.30818 | 29830 ft | 302 kts | 237° |
| 2026-04-18 22:23 | 43.55970 | -82.35847 | 29813 ft | 304 kts | 236° |
| 2026-04-18 22:24 | 43.53841 | -82.40948 | 29905 ft | 310 kts | 237° |
| 2026-04-18 22:24 | 43.51711 | -82.46056 | 29822 ft | 298 kts | 237° |
| 2026-04-18 22:25 | 43.50691 | -82.48497 | 29824 ft | 293 kts | 237° |
| 2026-04-18 22:25 | 43.49665 | -82.50939 | 29825 ft | 296 kts | 237° |
| 2026-04-18 22:25 | 43.48631 | -82.53402 | 29829 ft | 297 kts | 237° |
| 2026-04-18 22:25 | 43.47600 | -82.55862 | 29822 ft | 296 kts | 237° |
| 2026-04-18 22:26 | 43.46574 | -82.58312 | 29822 ft | 296 kts | 237° |
| 2026-04-18 22:26 | 43.45543 | -82.60763 | 29822 ft | 296 kts | 237° |
| 2026-04-18 22:26 | 43.44513 | -82.63208 | 29822 ft | 296 kts | 237° |
| 2026-04-18 22:26 | 43.43480 | -82.65663 | 29822 ft | 296 kts | 237° |
| 2026-04-18 22:27 | 43.42462 | -82.68082 | 29823 ft | 296 kts | 237° |
| 2026-04-18 22:27 | 43.41426 | -82.70536 | 29823 ft | 296 kts | 237° |
| 2026-04-18 22:27 | 43.40388 | -82.72992 | 29819 ft | 296 kts | 237° |
| 2026-04-18 22:27 | 43.39355 | -82.75441 | 29780 ft | 297 kts | 236° |
| 2026-04-18 22:28 | 43.38314 | -82.77903 | 29809 ft | 299 kts | 236° |
| 2026-04-18 22:28 | 43.37261 | -82.80391 | 29871 ft | 303 kts | 237° |
| 2026-04-18 22:28 | 43.36210 | -82.82876 | 29854 ft | 297 kts | 237° |
| 2026-04-18 22:28 | 43.35183 | -82.85305 | 29817 ft | 291 kts | 237° |
| 2026-04-18 22:29 | 43.34163 | -82.87704 | 29821 ft | 292 kts | 237° |
| 2026-04-18 22:29 | 43.33135 | -82.90126 | 29824 ft | 293 kts | 237° |
| 2026-04-18 22:29 | 43.32110 | -82.92539 | 29821 ft | 293 kts | 237° |
| 2026-04-18 22:29 | 43.31083 | -82.94957 | 29821 ft | 293 kts | 237° |
| 2026-04-18 22:30 | 43.30054 | -82.97370 | 29823 ft | 293 kts | 237° |
| 2026-04-18 22:30 | 43.29042 | -82.99744 | 29822 ft | 293 kts | 237° |
| 2026-04-18 22:30 | 43.28012 | -83.02158 | 29830 ft | 293 kts | 237° |
| 2026-04-18 22:30 | 43.26982 | -83.04575 | 29831 ft | 293 kts | 237° |
| 2026-04-18 22:31 | 43.25952 | -83.06985 | 29828 ft | 293 kts | 237° |
| 2026-04-18 22:31 | 43.24923 | -83.09393 | 29828 ft | 293 kts | 237° |
| 2026-04-18 22:31 | 43.23891 | -83.11809 | 29826 ft | 293 kts | 237° |
| 2026-04-18 22:31 | 43.22861 | -83.14215 | 29829 ft | 292 kts | 237° |
| 2026-04-18 22:32 | 43.21831 | -83.16623 | 29873 ft | 293 kts | 237° |
| 2026-04-18 22:32 | 43.20796 | -83.19037 | 29850 ft | 293 kts | 237° |
| 2026-04-18 22:32 | 43.19769 | -83.21429 | 29845 ft | 289 kts | 237° |
| 2026-04-18 22:32 | 43.18749 | -83.23805 | 29848 ft | 289 kts | 236° |
| 2026-04-18 22:33 | 43.17727 | -83.26181 | 29857 ft | 290 kts | 237° |
| 2026-04-18 22:33 | 43.16717 | -83.28534 | 29854 ft | 290 kts | 237° |
| 2026-04-18 22:33 | 43.15693 | -83.30913 | 29862 ft | 290 kts | 236° |
| 2026-04-18 22:33 | 43.14663 | -83.33297 | 29870 ft | 290 kts | 236° |
| 2026-04-18 22:34 | 43.13637 | -83.35676 | 29868 ft | 290 kts | 237° |
| 2026-04-18 22:34 | 43.12616 | -83.38052 | 29866 ft | 290 kts | 236° |
| 2026-04-18 22:34 | 43.11590 | -83.40420 | 29867 ft | 290 kts | 236° |
| 2026-04-18 22:34 | 43.10562 | -83.42794 | 29866 ft | 289 kts | 236° |
| 2026-04-18 22:35 | 43.09533 | -83.45171 | 29887 ft | 290 kts | 236° |
| 2026-04-18 22:35 | 43.08505 | -83.47544 | 29893 ft | 290 kts | 236° |
| 2026-04-18 22:35 | 43.07476 | -83.49924 | 29900 ft | 290 kts | 237° |
| 2026-04-18 22:35 | 43.06450 | -83.52296 | 29901 ft | 290 kts | 236° |
| 2026-04-18 22:36 | 43.05421 | -83.54664 | 29945 ft | 290 kts | 237° |
| 2026-04-18 22:36 | 43.04384 | -83.57049 | 29830 ft | 292 kts | 236° |
| 2026-04-18 22:36 | 43.03352 | -83.59428 | 29909 ft | 289 kts | 236° |
| 2026-04-18 22:36 | 43.02339 | -83.61749 | 29896 ft | 288 kts | 236° |
| 2026-04-18 22:37 | 43.01318 | -83.64091 | 29902 ft | 287 kts | 236° |
| 2026-04-18 22:37 | 43.00292 | -83.66449 | 29899 ft | 287 kts | 236° |
| 2026-04-18 22:37 | 42.99272 | -83.68790 | 29898 ft | 287 kts | 236° |
| 2026-04-18 22:37 | 42.98248 | -83.71137 | 29904 ft | 287 kts | 236° |
| 2026-04-18 22:38 | 42.97226 | -83.73480 | 29900 ft | 287 kts | 236° |
| 2026-04-18 22:38 | 42.96398 | -83.75974 | 29918 ft | 292 kts | 245° |
| 2026-04-18 22:38 | 42.95859 | -83.78674 | 29903 ft | 297 kts | 248° |
| 2026-04-18 22:38 | 42.95351 | -83.81405 | 29902 ft | 295 kts | 247° |
| 2026-04-18 22:39 | 42.94813 | -83.84105 | 29901 ft | 294 kts | 246° |
| 2026-04-18 22:39 | 42.94264 | -83.86759 | 29903 ft | 294 kts | 246° |
| 2026-04-18 22:39 | 42.93715 | -83.89455 | 29901 ft | 294 kts | 246° |
| 2026-04-18 22:39 | 42.93173 | -83.92154 | 29954 ft | 295 kts | 248° |
| 2026-04-18 22:40 | 42.92626 | -83.94871 | 29895 ft | 299 kts | 248° |
| 2026-04-18 22:40 | 42.92074 | -83.97607 | 29907 ft | 300 kts | 248° |
| 2026-04-18 22:40 | 42.90958 | -84.03097 | 29910 ft | 300 kts | 248° |
| 2026-04-18 22:41 | 42.90399 | -84.05844 | 29910 ft | 300 kts | 248° |
| 2026-04-18 22:41 | 42.89840 | -84.08583 | 29910 ft | 300 kts | 248° |
| 2026-04-18 22:41 | 42.89281 | -84.11324 | 29909 ft | 300 kts | 248° |
| 2026-04-18 22:41 | 42.88722 | -84.14066 | 29906 ft | 299 kts | 248° |
| 2026-04-18 22:42 | 42.88161 | -84.16804 | 29908 ft | 300 kts | 248° |
| 2026-04-18 22:42 | 42.87599 | -84.19548 | 29886 ft | 300 kts | 248° |
| 2026-04-18 22:42 | 42.87039 | -84.22282 | 29885 ft | 296 kts | 247° |
| 2026-04-18 22:42 | 42.86499 | -84.24930 | 29888 ft | 284 kts | 247° |
| 2026-04-18 22:43 | 42.85983 | -84.27446 | 29901 ft | 276 kts | 247° |
| 2026-04-18 22:43 | 42.85461 | -84.29958 | 29943 ft | 277 kts | 247° |
| 2026-04-18 22:43 | 42.84932 | -84.32511 | 29888 ft | 281 kts | 248° |
| 2026-04-18 22:43 | 42.84403 | -84.35089 | 29897 ft | 284 kts | 248° |
| 2026-04-18 22:44 | 42.83861 | -84.37697 | 29911 ft | 288 kts | 248° |
| 2026-04-18 22:44 | 42.83315 | -84.40334 | 29921 ft | 290 kts | 248° |
| 2026-04-18 22:44 | 42.82771 | -84.42966 | 29917 ft | 287 kts | 248° |
| 2026-04-18 22:44 | 42.82232 | -84.45580 | 29918 ft | 287 kts | 248° |
| 2026-04-18 22:45 | 42.81687 | -84.48200 | 29924 ft | 287 kts | 248° |
| 2026-04-18 22:45 | 42.81142 | -84.50809 | 29923 ft | 286 kts | 248° |
| 2026-04-18 22:45 | 42.80597 | -84.53419 | 29926 ft | 287 kts | 248° |
| 2026-04-18 22:45 | 42.80051 | -84.56039 | 29927 ft | 287 kts | 248° |
| 2026-04-18 22:46 | 42.79510 | -84.58648 | 29924 ft | 287 kts | 248° |
| 2026-04-18 22:46 | 42.78961 | -84.61270 | 29926 ft | 288 kts | 248° |
| 2026-04-18 22:46 | 42.78415 | -84.63879 | 29925 ft | 288 kts | 248° |
| 2026-04-18 22:46 | 42.77865 | -84.66504 | 29926 ft | 288 kts | 247° |
| 2026-04-18 22:47 | 42.77314 | -84.69131 | 29950 ft | 289 kts | 248° |
| 2026-04-18 22:47 | 42.76755 | -84.71774 | 29931 ft | 291 kts | 248° |
| 2026-04-18 22:47 | 42.76198 | -84.74423 | 29924 ft | 292 kts | 248° |
| 2026-04-18 22:47 | 42.75635 | -84.77087 | 29919 ft | 292 kts | 248° |
| 2026-04-18 22:48 | 42.75078 | -84.79745 | 29919 ft | 292 kts | 248° |
| 2026-04-18 22:48 | 42.74515 | -84.82398 | 29938 ft | 292 kts | 248° |
| 2026-04-18 22:48 | 42.73952 | -84.85054 | 29938 ft | 292 kts | 248° |
| 2026-04-18 22:48 | 42.73400 | -84.87676 | 29943 ft | 292 kts | 248° |
| 2026-04-18 22:49 | 42.72838 | -84.90335 | 29941 ft | 292 kts | 248° |
| 2026-04-18 22:49 | 42.72290 | -84.92998 | 29940 ft | 294 kts | 250° |
| 2026-04-18 22:49 | 42.71983 | -84.95776 | 29939 ft | 299 kts | 255° |
| 2026-04-18 22:49 | 42.71777 | -84.98601 | 29938 ft | 300 kts | 256° |
| 2026-04-18 22:50 | 42.71602 | -85.01428 | 29935 ft | 300 kts | 256° |
| 2026-04-18 22:50 | 42.71453 | -85.04263 | 29933 ft | 301 kts | 257° |
| 2026-04-18 22:50 | 42.71306 | -85.07094 | 29968 ft | 298 kts | 253° |
| 2026-04-18 22:50 | 42.70753 | -85.09742 | 29957 ft | 286 kts | 243° |
| 2026-04-18 22:51 | 42.69958 | -85.12230 | 29933 ft | 289 kts | 242° |
| 2026-04-18 22:51 | 42.69169 | -85.14741 | 29928 ft | 288 kts | 243° |
| 2026-04-18 22:51 | 42.68490 | -85.17307 | 29926 ft | 291 kts | 247° |
| 2026-04-18 22:51 | 42.67922 | -85.19959 | 29927 ft | 292 kts | 248° |
| 2026-04-18 22:52 | 42.67358 | -85.22571 | 29937 ft | 291 kts | 247° |
| 2026-04-18 22:52 | 42.66743 | -85.25187 | 29934 ft | 290 kts | 246° |
| 2026-04-18 22:52 | 42.66123 | -85.27794 | 29936 ft | 290 kts | 246° |
| 2026-04-18 22:52 | 42.65516 | -85.30415 | 29940 ft | 291 kts | 246° |
| 2026-04-18 22:53 | 42.64913 | -85.33036 | 29939 ft | 290 kts | 246° |
| 2026-04-18 22:53 | 42.64308 | -85.35650 | 29936 ft | 290 kts | 246° |
| 2026-04-18 22:53 | 42.63697 | -85.38262 | 29941 ft | 290 kts | 246° |
| 2026-04-18 22:53 | 42.63085 | -85.40873 | 29939 ft | 290 kts | 246° |
| 2026-04-18 22:54 | 42.62478 | -85.43484 | 30025 ft | 291 kts | 246° |
| 2026-04-18 22:54 | 42.61869 | -85.46103 | 29988 ft | 289 kts | 246° |
| 2026-04-18 22:54 | 42.61266 | -85.48687 | 29930 ft | 286 kts | 246° |
| 2026-04-18 22:54 | 42.60666 | -85.51241 | 29938 ft | 285 kts | 246° |
| 2026-04-18 22:55 | 42.60066 | -85.53819 | 29940 ft | 286 kts | 246° |
| 2026-04-18 22:55 | 42.59464 | -85.56400 | 29945 ft | 286 kts | 246° |
| 2026-04-18 22:55 | 42.58859 | -85.58964 | 29950 ft | 286 kts | 246° |
| 2026-04-18 22:55 | 42.58251 | -85.61543 | 29946 ft | 287 kts | 246° |
| 2026-04-18 22:56 | 42.57850 | -85.63249 | 29956 ft | 286 kts | 246° |
| 2026-04-18 22:56 | 42.57238 | -85.65827 | 29955 ft | 287 kts | 246° |
| 2026-04-18 22:56 | 42.56632 | -85.68409 | 29950 ft | 286 kts | 246° |
| 2026-04-18 22:56 | 42.56029 | -85.70978 | 29952 ft | 286 kts | 246° |
| 2026-04-18 22:57 | 42.55422 | -85.73536 | 29960 ft | 286 kts | 246° |
| 2026-04-18 22:57 | 42.54809 | -85.76119 | 29966 ft | 286 kts | 246° |
| 2026-04-18 22:57 | 42.54201 | -85.78690 | 29964 ft | 286 kts | 246° |
| 2026-04-18 22:57 | 42.53595 | -85.81258 | 29888 ft | 285 kts | 246° |
| 2026-04-18 22:58 | 42.52987 | -85.83819 | 29967 ft | 286 kts | 246° |
| 2026-04-18 22:58 | 42.52370 | -85.86400 | 29972 ft | 290 kts | 246° |
| 2026-04-18 22:58 | 42.51749 | -85.89012 | 29980 ft | 291 kts | 246° |
| 2026-04-18 22:58 | 42.51130 | -85.91616 | 29975 ft | 290 kts | 246° |
| 2026-04-18 22:59 | 42.50512 | -85.94210 | 29974 ft | 289 kts | 246° |
| 2026-04-18 22:59 | 42.49892 | -85.96808 | 29974 ft | 289 kts | 246° |
| 2026-04-18 22:59 | 42.49271 | -85.99400 | 29974 ft | 289 kts | 246° |
| 2026-04-18 22:59 | 42.48648 | -86.01996 | 29975 ft | 290 kts | 246° |
| 2026-04-18 23:00 | 42.48030 | -86.04581 | 29973 ft | 289 kts | 246° |
| 2026-04-18 23:00 | 42.47409 | -86.07172 | 29975 ft | 290 kts | 246° |
| 2026-04-18 23:00 | 42.46785 | -86.09768 | 29976 ft | 288 kts | 245° |
| 2026-04-18 23:00 | 42.45973 | -86.12204 | 30001 ft | 284 kts | 239° |
| 2026-04-18 23:01 | 42.44998 | -86.14562 | 30013 ft | 286 kts | 238° |
| 2026-04-18 23:01 | 42.44023 | -86.16912 | 29966 ft | 286 kts | 239° |
| 2026-04-18 23:01 | 42.43087 | -86.19269 | 30100 ft | 285 kts | 240° |
| 2026-04-18 23:01 | 42.42160 | -86.21614 | 30030 ft | 277 kts | 240° |
| 2026-04-18 23:02 | 42.41251 | -86.23875 | 29978 ft | 271 kts | 240° |
| 2026-04-18 23:02 | 42.40351 | -86.26108 | 30010 ft | 270 kts | 240° |
| 2026-04-18 23:02 | 42.39446 | -86.28356 | 29997 ft | 274 kts | 240° |
| 2026-04-18 23:02 | 42.38529 | -86.30636 | 30004 ft | 277 kts | 240° |
| 2026-04-18 23:03 | 42.37602 | -86.32939 | 30003 ft | 281 kts | 240° |
| 2026-04-18 23:03 | 42.36672 | -86.35241 | 30006 ft | 284 kts | 240° |
| 2026-04-18 23:03 | 42.35722 | -86.37593 | 30007 ft | 288 kts | 240° |
| 2026-04-18 23:03 | 42.34757 | -86.39988 | 29967 ft | 291 kts | 240° |
| 2026-04-18 23:04 | 42.33783 | -86.42401 | 30004 ft | 293 kts | 240° |
| 2026-04-18 23:04 | 42.32797 | -86.44835 | 30006 ft | 296 kts | 240° |
| 2026-04-18 23:04 | 42.31805 | -86.47291 | 30014 ft | 299 kts | 240° |
| 2026-04-18 23:04 | 42.30797 | -86.49777 | 30025 ft | 302 kts | 240° |
| 2026-04-18 23:05 | 42.28751 | -86.54804 | 30028 ft | 309 kts | 240° |
| 2026-04-18 23:05 | 42.26693 | -86.59875 | 30035 ft | 305 kts | 240° |
| 2026-04-18 23:06 | 42.24647 | -86.64901 | 30024 ft | 305 kts | 240° |
| 2026-04-18 23:06 | 42.22619 | -86.69875 | 30028 ft | 304 kts | 240° |
| 2026-04-18 23:07 | 42.20578 | -86.74880 | 30026 ft | 305 kts | 240° |
| 2026-04-18 23:07 | 42.18525 | -86.79891 | 30032 ft | 304 kts | 240° |
| 2026-04-18 23:08 | 42.16517 | -86.84919 | 30033 ft | 305 kts | 241° |
| 2026-04-18 23:08 | 42.14604 | -86.90013 | 30006 ft | 305 kts | 242° |
| 2026-04-18 23:09 | 42.12779 | -86.95192 | 30084 ft | 306 kts | 242° |
| 2026-04-18 23:09 | 42.10501 | -87.00002 | 30037 ft | 304 kts | 235° |
| 2026-04-18 23:10 | 42.08208 | -87.04800 | 30035 ft | 305 kts | 240° |
| 2026-04-18 23:10 | 42.06218 | -87.09848 | 30038 ft | 305 kts | 240° |
| 2026-04-18 23:11 | 42.04144 | -87.14774 | 30039 ft | 305 kts | 239° |
| 2026-04-18 23:11 | 42.02077 | -87.19786 | 30038 ft | 304 kts | 239° |
| 2026-04-18 23:12 | 42.00021 | -87.24722 | 30038 ft | 304 kts | 239° |
| 2026-04-18 23:12 | 41.97952 | -87.29696 | 30036 ft | 305 kts | 239° |
| 2026-04-18 23:13 | 41.95885 | -87.34660 | 30038 ft | 305 kts | 239° |
| 2026-04-18 23:13 | 41.93813 | -87.39622 | 30040 ft | 304 kts | 239° |
| 2026-04-18 23:14 | 41.91723 | -87.44616 | 30039 ft | 305 kts | 239° |
| 2026-04-18 23:14 | 41.89654 | -87.49549 | 30045 ft | 305 kts | 239° |
| 2026-04-18 23:15 | 41.87574 | -87.54504 | 30047 ft | 305 kts | 239° |
| 2026-04-18 23:15 | 41.85494 | -87.59452 | 30051 ft | 305 kts | 239° |
| 2026-04-18 23:16 | 41.83408 | -87.64403 | 30057 ft | 305 kts | 239° |
| 2026-04-18 23:16 | 41.81323 | -87.69348 | 30058 ft | 305 kts | 239° |
| 2026-04-18 23:17 | 41.79231 | -87.74298 | 30058 ft | 304 kts | 239° |
| 2026-04-18 23:17 | 41.77146 | -87.79224 | 30058 ft | 304 kts | 239° |
| 2026-04-18 23:18 | 41.75057 | -87.84150 | 29989 ft | 304 kts | 239° |
| 2026-04-18 23:18 | 41.72962 | -87.89084 | 30055 ft | 306 kts | 239° |
| 2026-04-18 23:19 | 41.70862 | -87.94020 | 30066 ft | 305 kts | 239° |
| 2026-04-18 23:19 | 41.68759 | -87.98954 | 30070 ft | 305 kts | 239° |
| 2026-04-18 23:20 | 41.66654 | -88.03888 | 30075 ft | 305 kts | 239° |
| 2026-04-18 23:20 | 41.64565 | -88.08773 | 30074 ft | 305 kts | 239° |
| 2026-04-18 23:21 | 41.62453 | -88.13704 | 30085 ft | 303 kts | 239° |
| 2026-04-18 23:21 | 41.60356 | -88.18597 | 30088 ft | 304 kts | 239° |
| 2026-04-18 23:22 | 41.58253 | -88.23488 | 30085 ft | 304 kts | 238° |
| 2026-04-18 23:23 | 41.55133 | -88.30859 | 30084 ft | 305 kts | 243° |
| 2026-04-18 23:23 | 41.54624 | -88.33623 | 30042 ft | 314 kts | 257° |
| 2026-04-18 23:23 | 41.54622 | -88.36531 | 30093 ft | 322 kts | 262° |
| 2026-04-18 23:24 | 41.54540 | -88.42484 | 30088 ft | 319 kts | 259° |
| 2026-04-18 23:24 | 41.54590 | -88.48430 | 30113 ft | 322 kts | 261° |
| 2026-04-18 23:25 | 41.54620 | -88.54397 | 30078 ft | 320 kts | 260° |
| 2026-04-18 23:25 | 41.54639 | -88.60330 | 30072 ft | 320 kts | 260° |
| 2026-04-18 23:26 | 41.54666 | -88.66283 | 30082 ft | 320 kts | 260° |
| 2026-04-18 23:26 | 41.54683 | -88.72213 | 30085 ft | 320 kts | 260° |
| 2026-04-18 23:27 | 41.54700 | -88.78169 | 30087 ft | 320 kts | 260° |
| 2026-04-18 23:27 | 41.54712 | -88.84103 | 30083 ft | 320 kts | 260° |
| 2026-04-18 23:28 | 41.54721 | -88.90071 | 30106 ft | 321 kts | 260° |
| 2026-04-18 23:28 | 41.54729 | -88.96024 | 30098 ft | 321 kts | 260° |
| 2026-04-18 23:29 | 41.54732 | -89.01984 | 30097 ft | 321 kts | 260° |
| 2026-04-18 23:29 | 41.54733 | -89.07940 | 30099 ft | 321 kts | 260° |
| 2026-04-18 23:30 | 41.54730 | -89.13906 | 30107 ft | 321 kts | 260° |
| 2026-04-18 23:30 | 41.54724 | -89.19859 | 30106 ft | 321 kts | 260° |
| 2026-04-18 23:31 | 41.54712 | -89.25815 | 30121 ft | 321 kts | 261° |
| 2026-04-18 23:31 | 41.54702 | -89.31795 | 30100 ft | 322 kts | 261° |
| 2026-04-18 23:32 | 41.54688 | -89.37721 | 30105 ft | 322 kts | 261° |
| 2026-04-18 23:32 | 41.54670 | -89.43630 | 30113 ft | 321 kts | 260° |
| 2026-04-18 23:33 | 41.54648 | -89.49608 | 30115 ft | 321 kts | 260° |
| 2026-04-18 23:33 | 41.54624 | -89.55576 | 30116 ft | 321 kts | 260° |
| 2026-04-18 23:34 | 41.54599 | -89.61537 | 30112 ft | 321 kts | 260° |
| 2026-04-18 23:34 | 41.54568 | -89.67509 | 30114 ft | 321 kts | 260° |
| 2026-04-18 23:35 | 41.54536 | -89.73485 | 30120 ft | 322 kts | 260° |
| 2026-04-18 23:35 | 41.54500 | -89.79451 | 30112 ft | 321 kts | 260° |
| 2026-04-18 23:36 | 41.54456 | -89.85381 | 30121 ft | 321 kts | 260° |
| 2026-04-18 23:36 | 41.54415 | -89.91352 | 30121 ft | 321 kts | 260° |
| 2026-04-18 23:37 | 41.54370 | -89.97275 | 30119 ft | 321 kts | 260° |
| 2026-04-18 23:37 | 41.54320 | -90.03243 | 30132 ft | 323 kts | 261° |
| 2026-04-18 23:38 | 41.54269 | -90.09240 | 30127 ft | 323 kts | 261° |
| 2026-04-18 23:38 | 41.54219 | -90.14275 | 30127 ft | 324 kts | 261° |
| 2026-04-18 23:39 | 41.54169 | -90.20250 | 30135 ft | 323 kts | 261° |
| 2026-04-18 23:39 | 41.54105 | -90.26255 | 30130 ft | 323 kts | 261° |
| 2026-04-18 23:40 | 41.54042 | -90.32268 | 30135 ft | 323 kts | 261° |
| 2026-04-18 23:40 | 41.53974 | -90.38273 | 30189 ft | 323 kts | 261° |
| 2026-04-18 23:41 | 41.53900 | -90.44310 | 30143 ft | 326 kts | 261° |
| 2026-04-18 23:41 | 41.53830 | -90.50384 | 30120 ft | 327 kts | 261° |
| 2026-04-18 23:42 | 41.53746 | -90.56450 | 30121 ft | 327 kts | 261° |
| 2026-04-18 23:42 | 41.53667 | -90.62528 | 30126 ft | 327 kts | 261° |
| 2026-04-18 23:43 | 41.53583 | -90.68613 | 30121 ft | 327 kts | 261° |
| 2026-04-18 23:43 | 41.53499 | -90.74645 | 30146 ft | 328 kts | 261° |
| 2026-04-18 23:44 | 41.53407 | -90.80737 | 30138 ft | 331 kts | 261° |
| 2026-04-18 23:44 | 41.53313 | -90.86929 | 30139 ft | 333 kts | 261° |
| 2026-04-18 23:45 | 41.53214 | -90.93109 | 30146 ft | 333 kts | 261° |
| 2026-04-18 23:45 | 41.53112 | -90.99292 | 30151 ft | 333 kts | 261° |
| 2026-04-18 23:46 | 41.53010 | -91.05494 | 30147 ft | 337 kts | 261° |
| 2026-04-18 23:46 | 41.52898 | -91.11804 | 30154 ft | 344 kts | 261° |
| 2026-04-18 23:47 | 41.52778 | -91.18243 | 30153 ft | 352 kts | 262° |
| 2026-04-18 23:47 | 41.52655 | -91.24826 | 30169 ft | 358 kts | 262° |
| 2026-04-18 23:48 | 41.52531 | -91.31440 | 30161 ft | 355 kts | 262° |
| 2026-04-18 23:48 | 41.52400 | -91.37972 | 30169 ft | 355 kts | 262° |
| 2026-04-18 23:49 | 41.52266 | -91.44573 | 30158 ft | 355 kts | 262° |
| 2026-04-18 23:49 | 41.52125 | -91.51171 | 30170 ft | 356 kts | 262° |
| 2026-04-18 23:50 | 41.51988 | -91.57781 | 30156 ft | 358 kts | 263° |
| 2026-04-18 23:50 | 41.51639 | -91.64391 | 30176 ft | 356 kts | 258° |
| 2026-04-18 23:51 | 41.51003 | -91.70954 | 30158 ft | 357 kts | 258° |
| 2026-04-18 23:51 | 41.50394 | -91.77534 | 30170 ft | 356 kts | 258° |
| 2026-04-18 23:52 | 41.49768 | -91.84091 | 30160 ft | 357 kts | 258° |
| 2026-04-18 23:52 | 41.49145 | -91.90651 | 30185 ft | 356 kts | 258° |
| 2026-04-18 23:53 | 41.48513 | -91.97222 | 30176 ft | 361 kts | 259° |
| 2026-04-18 23:53 | 41.47872 | -92.03882 | 30175 ft | 361 kts | 259° |
| 2026-04-18 23:54 | 41.47227 | -92.10536 | 30171 ft | 362 kts | 258° |
| 2026-04-18 23:54 | 41.46576 | -92.17188 | 30172 ft | 362 kts | 259° |
| 2026-04-18 23:55 | 41.45924 | -92.23844 | 30171 ft | 362 kts | 258° |
| 2026-04-18 23:55 | 41.45265 | -92.30508 | 30200 ft | 362 kts | 259° |
| 2026-04-18 23:56 | 41.44599 | -92.37210 | 30195 ft | 367 kts | 259° |
| 2026-04-18 23:56 | 41.43924 | -92.43967 | 30204 ft | 366 kts | 259° |
| 2026-04-18 23:57 | 41.43248 | -92.50703 | 30203 ft | 367 kts | 259° |
| 2026-04-18 23:57 | 41.42567 | -92.57402 | 30177 ft | 367 kts | 259° |
| 2026-04-18 23:58 | 41.41883 | -92.64137 | 30168 ft | 367 kts | 259° |
| 2026-04-18 23:58 | 41.41189 | -92.70898 | 30175 ft | 369 kts | 259° |
| 2026-04-18 23:59 | 41.40489 | -92.77700 | 30191 ft | 371 kts | 259° |
| 2026-04-18 23:59 | 41.39783 | -92.84505 | 30204 ft | 371 kts | 259° |
| 2026-04-19 00:00 | 41.39073 | -92.91322 | 30192 ft | 371 kts | 259° |
| 2026-04-19 00:00 | 41.38358 | -92.98130 | 30193 ft | 371 kts | 259° |
| 2026-04-19 00:01 | 41.37642 | -93.04923 | 30192 ft | 371 kts | 259° |
| 2026-04-19 00:01 | 41.36916 | -93.11754 | 30196 ft | 375 kts | 260° |
| 2026-04-19 00:02 | 41.36182 | -93.18676 | 30184 ft | 377 kts | 260° |
| 2026-04-19 00:02 | 41.35440 | -93.25588 | 30188 ft | 377 kts | 260° |
| 2026-04-19 00:03 | 41.34700 | -93.32445 | 30191 ft | 377 kts | 260° |
| 2026-04-19 00:03 | 41.33943 | -93.39407 | 30192 ft | 377 kts | 260° |
| 2026-04-19 00:04 | 41.33193 | -93.46263 | 30194 ft | 377 kts | 259° |
| 2026-04-19 00:04 | 41.32432 | -93.53180 | 30195 ft | 378 kts | 260° |
| 2026-04-19 00:05 | 41.31670 | -93.60086 | 30195 ft | 377 kts | 259° |
| 2026-04-19 00:05 | 41.30902 | -93.66992 | 30196 ft | 377 kts | 260° |
| 2026-04-19 00:06 | 41.30133 | -93.73889 | 30197 ft | 377 kts | 259° |
| 2026-04-19 00:06 | 41.29357 | -93.80795 | 30203 ft | 377 kts | 260° |
| 2026-04-19 00:07 | 41.28573 | -93.87738 | 30207 ft | 381 kts | 260° |
| 2026-04-19 00:07 | 41.27784 | -93.94704 | 30224 ft | 380 kts | 260° |
| 2026-04-19 00:08 | 41.26994 | -94.01600 | 30200 ft | 377 kts | 260° |
| 2026-04-19 00:08 | 41.26201 | -94.08508 | 30214 ft | 378 kts | 260° |
| 2026-04-19 00:09 | 41.25407 | -94.15395 | 30226 ft | 377 kts | 260° |
| 2026-04-19 00:09 | 41.24609 | -94.22262 | 30189 ft | 378 kts | 260° |
| 2026-04-19 00:10 | 41.23796 | -94.29229 | 30220 ft | 382 kts | 261° |
| 2026-04-19 00:10 | 41.22979 | -94.36190 | 30207 ft | 382 kts | 260° |
| 2026-04-19 00:11 | 41.22160 | -94.43159 | 30221 ft | 381 kts | 260° |
| 2026-04-19 00:11 | 41.21332 | -94.50125 | 30199 ft | 382 kts | 260° |
| 2026-04-19 00:12 | 41.20502 | -94.57085 | 30219 ft | 381 kts | 260° |
| 2026-04-19 00:12 | 41.19665 | -94.64069 | 30216 ft | 385 kts | 261° |
| 2026-04-19 00:13 | 41.18826 | -94.71037 | 30206 ft | 385 kts | 261° |
| 2026-04-19 00:13 | 41.17973 | -94.78068 | 30197 ft | 386 kts | 261° |
| 2026-04-19 00:14 | 41.17119 | -94.85093 | 30195 ft | 385 kts | 261° |
| 2026-04-19 00:14 | 41.16260 | -94.92100 | 30194 ft | 386 kts | 261° |
| 2026-04-19 00:15 | 41.15396 | -94.99126 | 30238 ft | 386 kts | 262° |
| 2026-04-19 00:15 | 41.14522 | -95.06191 | 30199 ft | 389 kts | 262° |
| 2026-04-19 00:16 | 41.13642 | -95.13264 | 30204 ft | 389 kts | 262° |
| 2026-04-19 00:16 | 41.12762 | -95.20323 | 30201 ft | 388 kts | 262° |
| 2026-04-19 00:17 | 41.11873 | -95.27381 | 30198 ft | 388 kts | 262° |
| 2026-04-19 00:17 | 41.10977 | -95.34447 | 30192 ft | 389 kts | 262° |
| 2026-04-19 00:18 | 41.10086 | -95.41520 | 30216 ft | 389 kts | 262° |
| 2026-04-19 00:18 | 41.09183 | -95.48555 | 30226 ft | 389 kts | 262° |
| 2026-04-19 00:19 | 41.08277 | -95.55626 | 30227 ft | 389 kts | 262° |
| 2026-04-19 00:19 | 41.07366 | -95.62690 | 30206 ft | 389 kts | 262° |
| 2026-04-19 00:20 | 41.06450 | -95.69758 | 30218 ft | 389 kts | 262° |
| 2026-04-19 00:20 | 41.05529 | -95.76839 | 30205 ft | 390 kts | 263° |
| 2026-04-19 00:21 | 41.04600 | -95.83928 | 30195 ft | 390 kts | 263° |
| 2026-04-19 00:21 | 41.03672 | -95.91001 | 30202 ft | 390 kts | 263° |
| 2026-04-19 00:22 | 41.02736 | -95.98081 | 30208 ft | 390 kts | 263° |
| 2026-04-19 00:22 | 41.01956 | -96.03956 | 30217 ft | 390 kts | 263° |
| 2026-04-19 00:23 | 41.01014 | -96.11030 | 30235 ft | 389 kts | 263° |
| 2026-04-19 00:23 | 41.00067 | -96.18109 | 30216 ft | 390 kts | 263° |
| 2026-04-19 00:24 | 40.99115 | -96.25177 | 30222 ft | 391 kts | 263° |
| 2026-04-19 00:24 | 40.98157 | -96.32258 | 30222 ft | 391 kts | 263° |
| 2026-04-19 00:25 | 40.97194 | -96.39336 | 30236 ft | 391 kts | 263° |
| 2026-04-19 00:25 | 40.96236 | -96.46412 | 30237 ft | 391 kts | 263° |
| 2026-04-19 00:26 | 40.95263 | -96.53476 | 30233 ft | 391 kts | 264° |
| 2026-04-19 00:26 | 40.94293 | -96.60518 | 30204 ft | 391 kts | 264° |
| 2026-04-19 00:27 | 40.93317 | -96.67568 | 30218 ft | 389 kts | 264° |
| 2026-04-19 00:27 | 40.92283 | -96.74591 | 30219 ft | 392 kts | 259° |
| 2026-04-19 00:28 | 40.90370 | -96.81383 | 30220 ft | 396 kts | 253° |
| 2026-04-19 00:28 | 40.88427 | -96.88180 | 30206 ft | 395 kts | 256° |
| 2026-04-19 00:29 | 40.86518 | -96.94973 | 30228 ft | 397 kts | 255° |
| 2026-04-19 00:29 | 40.84567 | -97.01773 | 30241 ft | 397 kts | 256° |
| 2026-04-19 00:30 | 40.82597 | -97.08669 | 30232 ft | 397 kts | 255° |
| 2026-04-19 00:30 | 40.80656 | -97.15445 | 30250 ft | 397 kts | 256° |
| 2026-04-19 00:31 | 40.78702 | -97.22256 | 30242 ft | 397 kts | 255° |
| 2026-04-19 00:31 | 40.76734 | -97.29080 | 30242 ft | 397 kts | 255° |
| 2026-04-19 00:32 | 40.74769 | -97.35890 | 30236 ft | 397 kts | 255° |
| 2026-04-19 00:32 | 40.72795 | -97.42709 | 30237 ft | 398 kts | 255° |
| 2026-04-19 00:33 | 40.70818 | -97.49525 | 30239 ft | 398 kts | 255° |
| 2026-04-19 00:33 | 40.68838 | -97.56325 | 30240 ft | 398 kts | 255° |
| 2026-04-19 00:34 | 40.65859 | -97.66532 | 30223 ft | 399 kts | 256° |
| 2026-04-19 00:34 | 40.63861 | -97.73349 | 30227 ft | 400 kts | 256° |
| 2026-04-19 00:35 | 40.61858 | -97.80160 | 30255 ft | 398 kts | 256° |
| 2026-04-19 00:35 | 40.59860 | -97.86951 | 30252 ft | 398 kts | 255° |
| 2026-04-19 00:36 | 40.57854 | -97.93746 | 30244 ft | 398 kts | 255° |
| 2026-04-19 00:36 | 40.55844 | -98.00532 | 30207 ft | 398 kts | 256° |
| 2026-04-19 00:37 | 40.53835 | -98.07313 | 30253 ft | 397 kts | 256° |
| 2026-04-19 00:37 | 40.51818 | -98.14079 | 30255 ft | 397 kts | 256° |
| 2026-04-19 00:38 | 40.49814 | -98.20811 | 30215 ft | 398 kts | 256° |
| 2026-04-19 00:38 | 40.47789 | -98.27571 | 30257 ft | 397 kts | 256° |
| 2026-04-19 00:39 | 40.45760 | -98.34351 | 30218 ft | 398 kts | 256° |
| 2026-04-19 00:39 | 40.43722 | -98.41126 | 30236 ft | 400 kts | 256° |
| 2026-04-19 00:40 | 40.41676 | -98.47903 | 30247 ft | 400 kts | 256° |
| 2026-04-19 00:40 | 40.39630 | -98.54684 | 30251 ft | 399 kts | 256° |
| 2026-04-19 00:41 | 40.37576 | -98.61450 | 30253 ft | 399 kts | 256° |
| 2026-04-19 00:41 | 40.35527 | -98.68219 | 30253 ft | 400 kts | 256° |
| 2026-04-19 00:42 | 40.33477 | -98.74933 | 30211 ft | 398 kts | 257° |
| 2026-04-19 00:42 | 40.31419 | -98.81700 | 30250 ft | 400 kts | 257° |
| 2026-04-19 00:43 | 40.29344 | -98.88462 | 30259 ft | 399 kts | 257° |
| 2026-04-19 00:43 | 40.27274 | -98.95217 | 30247 ft | 400 kts | 257° |
| 2026-04-19 00:44 | 40.25198 | -99.01975 | 30244 ft | 400 kts | 257° |
| 2026-04-19 00:44 | 40.23116 | -99.08732 | 30244 ft | 400 kts | 257° |
| 2026-04-19 00:45 | 40.21035 | -99.15468 | 30232 ft | 398 kts | 257° |
| 2026-04-19 00:45 | 40.18951 | -99.22201 | 30249 ft | 399 kts | 257° |
| 2026-04-19 00:46 | 40.16867 | -99.28922 | 30240 ft | 399 kts | 257° |
| 2026-04-19 00:46 | 40.14770 | -99.35650 | 30245 ft | 399 kts | 257° |
| 2026-04-19 00:47 | 40.12687 | -99.42326 | 30255 ft | 400 kts | 257° |
| 2026-04-19 00:47 | 40.10582 | -99.49053 | 30233 ft | 399 kts | 257° |
| 2026-04-19 00:48 | 40.08480 | -99.55760 | 30254 ft | 399 kts | 257° |
| 2026-04-19 00:48 | 40.06372 | -99.62455 | 30248 ft | 396 kts | 256° |
| 2026-04-19 00:49 | 40.04274 | -99.69116 | 30257 ft | 397 kts | 256° |
| 2026-04-19 00:49 | 40.02172 | -99.75771 | 30237 ft | 397 kts | 256° |
| 2026-04-19 00:50 | 40.00064 | -99.82426 | 30237 ft | 397 kts | 256° |
| 2026-04-19 00:50 | 39.97949 | -99.89086 | 30220 ft | 399 kts | 256° |
| 2026-04-19 00:51 | 39.95822 | -99.95769 | 30248 ft | 398 kts | 256° |
| 2026-04-19 00:51 | 39.93700 | -100.02422 | 30241 ft | 399 kts | 256° |
| 2026-04-19 00:52 | 39.91569 | -100.09086 | 30212 ft | 399 kts | 256° |
| 2026-04-19 00:52 | 39.89434 | -100.15746 | 30251 ft | 399 kts | 256° |
| 2026-04-19 00:53 | 39.87286 | -100.22429 | 30240 ft | 398 kts | 255° |
| 2026-04-19 00:53 | 39.85153 | -100.29059 | 30253 ft | 400 kts | 255° |
| 2026-04-19 00:54 | 39.82996 | -100.35736 | 30229 ft | 400 kts | 255° |
| 2026-04-19 00:54 | 39.80842 | -100.42401 | 30222 ft | 400 kts | 255° |
| 2026-04-19 00:55 | 39.78680 | -100.49067 | 30224 ft | 400 kts | 255° |
| 2026-04-19 00:55 | 39.76512 | -100.55729 | 30209 ft | 398 kts | 254° |
| 2026-04-19 00:56 | 39.74373 | -100.62287 | 30221 ft | 393 kts | 254° |
| 2026-04-19 00:56 | 39.72234 | -100.68845 | 30232 ft | 393 kts | 254° |
| 2026-04-19 00:57 | 39.70099 | -100.75355 | 30231 ft | 395 kts | 254° |
| 2026-04-19 00:57 | 39.67949 | -100.81910 | 30260 ft | 394 kts | 254° |
| 2026-04-19 00:58 | 39.65797 | -100.88455 | 30261 ft | 395 kts | 254° |
| 2026-04-19 00:58 | 39.63637 | -100.94999 | 30264 ft | 394 kts | 254° |
| 2026-04-19 00:59 | 39.61478 | -101.01536 | 30248 ft | 394 kts | 253° |
| 2026-04-19 00:59 | 39.59313 | -101.08063 | 30246 ft | 394 kts | 253° |
| 2026-04-19 01:00 | 39.57151 | -101.14578 | 30243 ft | 394 kts | 253° |
| 2026-04-19 01:00 | 39.54973 | -101.21118 | 30244 ft | 394 kts | 253° |
| 2026-04-19 01:01 | 39.52801 | -101.27634 | 30240 ft | 394 kts | 253° |
| 2026-04-19 01:01 | 39.50623 | -101.34146 | 30256 ft | 395 kts | 253° |
| 2026-04-19 01:02 | 39.48421 | -101.40714 | 30252 ft | 397 kts | 253° |
| 2026-04-19 01:02 | 39.46227 | -101.47241 | 30249 ft | 398 kts | 253° |
| 2026-04-19 01:03 | 39.44025 | -101.53791 | 30256 ft | 398 kts | 254° |
| 2026-04-19 01:03 | 39.41804 | -101.60363 | 30262 ft | 397 kts | 254° |
| 2026-04-19 01:04 | 39.39592 | -101.66902 | 30245 ft | 398 kts | 253° |
| 2026-04-19 01:04 | 39.38099 | -101.73652 | 30256 ft | 389 kts | 265° |
| 2026-04-19 01:05 | 39.37296 | -101.79371 | 30241 ft | 389 kts | 265° |
| 2026-04-19 01:05 | 39.36228 | -101.86230 | 30242 ft | 389 kts | 264° |
| 2026-04-19 01:06 | 39.35199 | -101.93087 | 30244 ft | 389 kts | 265° |
| 2026-04-19 01:06 | 39.34147 | -101.99948 | 30246 ft | 389 kts | 264° |
| 2026-04-19 01:07 | 39.33101 | -102.06796 | 30265 ft | 389 kts | 264° |
| 2026-04-19 01:07 | 39.32038 | -102.13704 | 30247 ft | 392 kts | 264° |
| 2026-04-19 01:08 | 39.30970 | -102.20608 | 30257 ft | 392 kts | 264° |
| 2026-04-19 01:08 | 39.29899 | -102.27510 | 30258 ft | 392 kts | 264° |
| 2026-04-19 01:09 | 39.28826 | -102.34415 | 30258 ft | 392 kts | 264° |
| 2026-04-19 01:09 | 39.27745 | -102.41325 | 30226 ft | 392 kts | 264° |
| 2026-04-19 01:10 | 39.26660 | -102.48243 | 30276 ft | 395 kts | 263° |
| 2026-04-19 01:10 | 39.25561 | -102.55147 | 30268 ft | 395 kts | 263° |
| 2026-04-19 01:11 | 39.24466 | -102.62090 | 30273 ft | 395 kts | 263° |
| 2026-04-19 01:11 | 39.23364 | -102.69021 | 30275 ft | 395 kts | 263° |
| 2026-04-19 01:12 | 39.22253 | -102.75975 | 30266 ft | 395 kts | 263° |
| 2026-04-19 01:12 | 39.21144 | -102.82896 | 30267 ft | 393 kts | 263° |
| 2026-04-19 01:13 | 39.20035 | -102.89793 | 30290 ft | 392 kts | 263° |
| 2026-04-19 01:13 | 39.18931 | -102.96651 | 30283 ft | 392 kts | 263° |
| 2026-04-19 01:14 | 39.17815 | -103.03539 | 30282 ft | 392 kts | 263° |
| 2026-04-19 01:14 | 39.16704 | -103.10416 | 30280 ft | 392 kts | 263° |
| 2026-04-19 01:15 | 39.15580 | -103.17289 | 30303 ft | 390 kts | 263° |
| 2026-04-19 01:15 | 39.14453 | -103.24114 | 30276 ft | 389 kts | 263° |
| 2026-04-19 01:16 | 39.13338 | -103.30926 | 30249 ft | 388 kts | 263° |
| 2026-04-19 01:16 | 39.12207 | -103.37724 | 30252 ft | 389 kts | 263° |
| 2026-04-19 01:17 | 39.11082 | -103.44535 | 30251 ft | 388 kts | 263° |
| 2026-04-19 01:17 | 39.09944 | -103.51345 | 30245 ft | 388 kts | 263° |
| 2026-04-19 01:18 | 39.08810 | -103.58131 | 30271 ft | 387 kts | 263° |
| 2026-04-19 01:18 | 39.07680 | -103.64860 | 30234 ft | 387 kts | 263° |
| 2026-04-19 01:19 | 39.06566 | -103.71660 | 30267 ft | 385 kts | 263° |
| 2026-04-19 01:19 | 39.06243 | -103.73699 | 30223 ft | 386 kts | 264° |
| 2026-04-19 01:20 | 39.05626 | -103.77759 | 30297 ft | 389 kts | 264° |
| 2026-04-19 01:20 | 39.04531 | -103.84579 | 30278 ft | 386 kts | 264° |
| 2026-04-19 01:21 | 39.03381 | -103.91351 | 30283 ft | 390 kts | 262° |
| 2026-04-19 01:21 | 39.02199 | -103.98158 | 30281 ft | 389 kts | 263° |
| 2026-04-19 01:22 | 39.01038 | -104.04966 | 30284 ft | 389 kts | 263° |
| 2026-04-19 01:22 | 38.99854 | -104.11763 | 30295 ft | 389 kts | 263° |
| 2026-04-19 01:23 | 38.98684 | -104.18549 | 30300 ft | 389 kts | 263° |
| 2026-04-19 01:23 | 38.97498 | -104.25347 | 30283 ft | 391 kts | 263° |
| 2026-04-19 01:24 | 38.96302 | -104.32173 | 30287 ft | 391 kts | 262° |
| 2026-04-19 01:24 | 38.95117 | -104.38957 | 30293 ft | 391 kts | 262° |
| 2026-04-19 01:25 | 38.93910 | -104.45766 | 30288 ft | 391 kts | 262° |
| 2026-04-19 01:25 | 38.92713 | -104.52586 | 30288 ft | 392 kts | 262° |
| 2026-04-19 01:26 | 38.91501 | -104.59401 | 30294 ft | 391 kts | 262° |
| 2026-04-19 01:26 | 38.90290 | -104.66214 | 30293 ft | 391 kts | 262° |
| 2026-04-19 01:27 | 38.89071 | -104.73029 | 30265 ft | 391 kts | 262° |
| 2026-04-19 01:27 | 38.87849 | -104.79850 | 30258 ft | 392 kts | 262° |
| 2026-04-19 01:28 | 38.86624 | -104.86658 | 30261 ft | 392 kts | 262° |
| 2026-04-19 01:28 | 38.86015 | -104.90011 | 30246 ft | 379 kts | 262° |
| 2026-04-19 01:28 | 38.85426 | -104.93248 | 30254 ft | 369 kts | 263° |
| 2026-04-19 01:29 | 38.84279 | -104.99669 | 30287 ft | 375 kts | 262° |
| 2026-04-19 01:29 | 38.83080 | -105.06229 | 30351 ft | 381 kts | 262° |
| 2026-04-19 01:30 | 38.81862 | -105.12914 | 30342 ft | 388 kts | 262° |
| 2026-04-19 01:30 | 38.80610 | -105.19743 | 30329 ft | 394 kts | 262° |
| 2026-04-19 01:31 | 38.79364 | -105.26524 | 30322 ft | 390 kts | 262° |
| 2026-04-19 01:31 | 38.78118 | -105.33286 | 30318 ft | 389 kts | 262° |
| 2026-04-19 01:32 | 38.76869 | -105.40031 | 30302 ft | 389 kts | 262° |
| 2026-04-19 01:32 | 38.75616 | -105.46777 | 30298 ft | 390 kts | 262° |
| 2026-04-19 01:33 | 38.74363 | -105.53521 | 30287 ft | 389 kts | 262° |
| 2026-04-19 01:33 | 38.73109 | -105.60221 | 30297 ft | 389 kts | 262° |
| 2026-04-19 01:34 | 38.71844 | -105.66975 | 30231 ft | 390 kts | 262° |
| 2026-04-19 01:34 | 38.70566 | -105.73768 | 30259 ft | 396 kts | 261° |
| 2026-04-19 01:35 | 38.69267 | -105.80634 | 30262 ft | 394 kts | 261° |
| 2026-04-19 01:35 | 38.67978 | -105.87456 | 30265 ft | 395 kts | 262° |
| 2026-04-19 01:36 | 38.66682 | -105.94258 | 30270 ft | 395 kts | 261° |
| 2026-04-19 01:36 | 38.65382 | -106.01087 | 30213 ft | 395 kts | 261° |
| 2026-04-19 01:37 | 38.64068 | -106.07968 | 30267 ft | 403 kts | 261° |
| 2026-04-19 01:37 | 38.62728 | -106.14910 | 30270 ft | 400 kts | 261° |
| 2026-04-19 01:38 | 38.61399 | -106.21823 | 30278 ft | 397 kts | 261° |
| 2026-04-19 01:38 | 38.60063 | -106.28728 | 30294 ft | 403 kts | 261° |
| 2026-04-19 01:39 | 38.58715 | -106.35663 | 30256 ft | 401 kts | 261° |
| 2026-04-19 01:39 | 38.57368 | -106.42596 | 30315 ft | 402 kts | 260° |
| 2026-04-19 01:40 | 38.56020 | -106.49485 | 30306 ft | 401 kts | 260° |
| 2026-04-19 01:40 | 38.54665 | -106.56397 | 30324 ft | 401 kts | 260° |
| 2026-04-19 01:41 | 38.53307 | -106.63308 | 30329 ft | 401 kts | 260° |
| 2026-04-19 01:41 | 38.51941 | -106.70221 | 30318 ft | 401 kts | 260° |
| 2026-04-19 01:42 | 38.50571 | -106.77147 | 30339 ft | 403 kts | 260° |
| 2026-04-19 01:43 | 38.48498 | -106.87560 | 30310 ft | 403 kts | 260° |
| 2026-04-19 01:43 | 38.47113 | -106.94500 | 30311 ft | 403 kts | 260° |
| 2026-04-19 01:44 | 38.45725 | -107.01434 | 30316 ft | 403 kts | 260° |
| 2026-04-19 01:44 | 38.43871 | -107.08224 | 30314 ft | 410 kts | 251° |
| 2026-04-19 01:45 | 38.41590 | -107.14867 | 30341 ft | 410 kts | 252° |
| 2026-04-19 01:45 | 38.39414 | -107.21585 | 30342 ft | 411 kts | 252° |
| 2026-04-19 01:46 | 38.37169 | -107.28283 | 30334 ft | 410 kts | 252° |
| 2026-04-19 01:46 | 38.34957 | -107.34984 | 30327 ft | 410 kts | 252° |
| 2026-04-19 01:47 | 38.32717 | -107.41686 | 30306 ft | 411 kts | 251° |
| 2026-04-19 01:47 | 38.30476 | -107.48408 | 30324 ft | 414 kts | 251° |
| 2026-04-19 01:48 | 38.28237 | -107.55098 | 30337 ft | 413 kts | 251° |
| 2026-04-19 01:48 | 38.25982 | -107.61818 | 30326 ft | 413 kts | 251° |
| 2026-04-19 01:49 | 38.23725 | -107.68536 | 30327 ft | 413 kts | 251° |
| 2026-04-19 01:49 | 38.21459 | -107.75251 | 30292 ft | 413 kts | 251° |
| 2026-04-19 01:50 | 38.19183 | -107.81995 | 30341 ft | 416 kts | 251° |
| 2026-04-19 01:50 | 38.17277 | -107.87624 | 30294 ft | 416 kts | 251° |
| 2026-04-19 01:51 | 38.14613 | -107.95475 | 30283 ft | 417 kts | 251° |
| 2026-04-19 01:51 | 38.12686 | -108.01139 | 30315 ft | 417 kts | 251° |
| 2026-04-19 01:52 | 38.10384 | -108.07893 | 30295 ft | 417 kts | 251° |
| 2026-04-19 01:52 | 38.08088 | -108.14612 | 30303 ft | 417 kts | 251° |
| 2026-04-19 01:53 | 38.05781 | -108.21355 | 30274 ft | 417 kts | 251° |
| 2026-04-19 01:53 | 38.03466 | -108.28099 | 30282 ft | 417 kts | 251° |
| 2026-04-19 01:54 | 38.01147 | -108.34843 | 30260 ft | 417 kts | 251° |
| 2026-04-19 01:54 | 37.98824 | -108.41579 | 30276 ft | 417 kts | 251° |
| 2026-04-19 01:55 | 37.96496 | -108.48322 | 30235 ft | 419 kts | 250° |
| 2026-04-19 01:55 | 37.94151 | -108.55091 | 30254 ft | 419 kts | 250° |
| 2026-04-19 01:56 | 37.91797 | -108.61870 | 30245 ft | 420 kts | 250° |
| 2026-04-19 01:56 | 37.89460 | -108.68589 | 30241 ft | 420 kts | 250° |
| 2026-04-19 01:57 | 37.87095 | -108.75368 | 30232 ft | 420 kts | 250° |
| 2026-04-19 01:57 | 37.84729 | -108.82141 | 30213 ft | 422 kts | 250° |
| 2026-04-19 01:58 | 37.82347 | -108.88941 | 30214 ft | 423 kts | 250° |
| 2026-04-19 01:58 | 37.80031 | -108.95771 | 30213 ft | 422 kts | 251° |
| 2026-04-19 01:59 | 37.77693 | -109.02590 | 30233 ft | 422 kts | 250° |
| 2026-04-19 01:59 | 37.75430 | -109.09398 | 30237 ft | 422 kts | 250° |
| 2026-04-19 02:00 | 37.73120 | -109.16240 | 30225 ft | 424 kts | 250° |
| 2026-04-19 02:00 | 37.70809 | -109.23098 | 30228 ft | 424 kts | 250° |
| 2026-04-19 02:01 | 37.68492 | -109.29949 | 30234 ft | 424 kts | 250° |
| 2026-04-19 02:01 | 37.66172 | -109.36796 | 30243 ft | 424 kts | 250° |
| 2026-04-19 02:02 | 37.63849 | -109.43643 | 30248 ft | 424 kts | 250° |
| 2026-04-19 02:02 | 37.61516 | -109.50485 | 30235 ft | 424 kts | 250° |
| 2026-04-19 02:03 | 37.59186 | -109.57323 | 30256 ft | 425 kts | 249° |
| 2026-04-19 02:03 | 37.56861 | -109.64119 | 30245 ft | 425 kts | 249° |
| 2026-04-19 02:04 | 37.54516 | -109.70958 | 30208 ft | 425 kts | 249° |
| 2026-04-19 02:04 | 37.52167 | -109.77792 | 30208 ft | 425 kts | 249° |
| 2026-04-19 02:05 | 37.49813 | -109.84630 | 30192 ft | 425 kts | 249° |
| 2026-04-19 02:05 | 37.47449 | -109.91476 | 30200 ft | 426 kts | 249° |
| 2026-04-19 02:06 | 37.45085 | -109.98310 | 30187 ft | 426 kts | 249° |
| 2026-04-19 02:06 | 37.42732 | -110.05095 | 30187 ft | 426 kts | 249° |
| 2026-04-19 02:07 | 37.40357 | -110.11929 | 30194 ft | 426 kts | 249° |
| 2026-04-19 02:07 | 37.37978 | -110.18757 | 30203 ft | 426 kts | 249° |
| 2026-04-19 02:08 | 37.35598 | -110.25575 | 30171 ft | 426 kts | 249° |
| 2026-04-19 02:08 | 37.33214 | -110.32387 | 30162 ft | 426 kts | 249° |
| 2026-04-19 02:09 | 37.30823 | -110.39201 | 30172 ft | 426 kts | 249° |
| 2026-04-19 02:09 | 37.28433 | -110.46003 | 30181 ft | 427 kts | 249° |
| 2026-04-19 02:10 | 37.26032 | -110.52815 | 30178 ft | 427 kts | 249° |
| 2026-04-19 02:10 | 37.23623 | -110.59638 | 30178 ft | 427 kts | 249° |
| 2026-04-19 02:11 | 37.21225 | -110.66406 | 30174 ft | 427 kts | 249° |
| 2026-04-19 02:11 | 37.18812 | -110.73220 | 30175 ft | 427 kts | 249° |
| 2026-04-19 02:12 | 37.16393 | -110.80018 | 30169 ft | 424 kts | 248° |
| 2026-04-19 02:12 | 37.15204 | -110.83351 | 30159 ft | 412 kts | 248° |
| 2026-04-19 02:12 | 37.14042 | -110.86609 | 30165 ft | 409 kts | 249° |
| 2026-04-19 02:13 | 37.11707 | -110.93162 | 30156 ft | 411 kts | 248° |
| 2026-04-19 02:13 | 37.09365 | -110.99695 | 30164 ft | 411 kts | 249° |
| 2026-04-19 02:14 | 37.07025 | -111.06227 | 30164 ft | 412 kts | 248° |
| 2026-04-19 02:14 | 37.04673 | -111.12762 | 30166 ft | 411 kts | 248° |
| 2026-04-19 02:15 | 37.02327 | -111.19286 | 30165 ft | 411 kts | 248° |
| 2026-04-19 02:15 | 36.99966 | -111.25821 | 30171 ft | 412 kts | 248° |
| 2026-04-19 02:16 | 36.97605 | -111.32349 | 30199 ft | 411 kts | 248° |
| 2026-04-19 02:16 | 36.95252 | -111.38834 | 30182 ft | 412 kts | 248° |
| 2026-04-19 02:17 | 36.93175 | -111.45354 | 30141 ft | 387 kts | 261° |
| 2026-04-19 02:17 | 36.92917 | -111.48608 | 30174 ft | 369 kts | 269° |
| 2026-04-19 02:17 | 36.92799 | -111.51750 | 30178 ft | 355 kts | 269° |
| 2026-04-19 02:18 | 36.92510 | -111.57939 | 30163 ft | 361 kts | 268° |
| 2026-04-19 02:18 | 36.92218 | -111.64296 | 30178 ft | 367 kts | 268° |
| 2026-04-19 02:19 | 36.91922 | -111.70617 | 30170 ft | 365 kts | 268° |
| 2026-04-19 02:19 | 36.91625 | -111.76908 | 30171 ft | 365 kts | 268° |
| 2026-04-19 02:20 | 36.91170 | -111.86399 | 30176 ft | 365 kts | 268° |
| 2026-04-19 02:20 | 36.90863 | -111.92740 | 30177 ft | 365 kts | 268° |
| 2026-04-19 02:21 | 36.90552 | -111.99071 | 30183 ft | 365 kts | 268° |
| 2026-04-19 02:21 | 36.90239 | -112.05405 | 30184 ft | 365 kts | 268° |
| 2026-04-19 02:22 | 36.89922 | -112.11736 | 30180 ft | 364 kts | 268° |
| 2026-04-19 02:22 | 36.89763 | -112.14864 | 29831 ft | 361 kts | 268° |
| 2026-04-19 02:22 | 36.89603 | -112.18004 | 29277 ft | 360 kts | 268° |
| 2026-04-19 02:23 | 36.89445 | -112.21109 | 28829 ft | 357 kts | 268° |
| 2026-04-19 02:23 | 36.89286 | -112.24151 | 28410 ft | 354 kts | 268° |
| 2026-04-19 02:23 | 36.89129 | -112.27205 | 28021 ft | 352 kts | 268° |
| 2026-04-19 02:23 | 36.88974 | -112.30243 | 27779 ft | 349 kts | 268° |
| 2026-04-19 02:24 | 36.88817 | -112.33265 | 27521 ft | 349 kts | 268° |
| 2026-04-19 02:24 | 36.88658 | -112.36291 | 27305 ft | 350 kts | 268° |
| 2026-04-19 02:24 | 36.88498 | -112.39341 | 27019 ft | 351 kts | 268° |
| 2026-04-19 02:24 | 36.88336 | -112.42390 | 26724 ft | 350 kts | 267° |
| 2026-04-19 02:25 | 36.88175 | -112.45415 | 26451 ft | 348 kts | 267° |
| 2026-04-19 02:25 | 36.88015 | -112.48428 | 26144 ft | 347 kts | 267° |
| 2026-04-19 02:25 | 36.87854 | -112.51433 | 25869 ft | 346 kts | 267° |
| 2026-04-19 02:25 | 36.87691 | -112.54432 | 25610 ft | 345 kts | 267° |
| 2026-04-19 02:26 | 36.87528 | -112.57420 | 25346 ft | 344 kts | 267° |
| 2026-04-19 02:26 | 36.87368 | -112.60400 | 25069 ft | 343 kts | 267° |
| 2026-04-19 02:26 | 36.87207 | -112.63362 | 24912 ft | 340 kts | 267° |
| 2026-04-19 02:26 | 36.87044 | -112.66315 | 24803 ft | 340 kts | 267° |
| 2026-04-19 02:27 | 36.86881 | -112.69260 | 24704 ft | 340 kts | 267° |
| 2026-04-19 02:27 | 36.86721 | -112.72170 | 24605 ft | 340 kts | 267° |
| 2026-04-19 02:27 | 36.86557 | -112.75111 | 24484 ft | 340 kts | 267° |
| 2026-04-19 02:27 | 36.86392 | -112.78057 | 24396 ft | 340 kts | 267° |
| 2026-04-19 02:28 | 36.86229 | -112.80995 | 24310 ft | 339 kts | 267° |
| 2026-04-19 02:28 | 36.86064 | -112.83929 | 24203 ft | 338 kts | 267° |
| 2026-04-19 02:28 | 36.85896 | -112.86859 | 24119 ft | 338 kts | 267° |
| 2026-04-19 02:28 | 36.85729 | -112.89784 | 24027 ft | 338 kts | 267° |
| 2026-04-19 02:29 | 36.85564 | -112.92701 | 23884 ft | 336 kts | 267° |
| 2026-04-19 02:29 | 36.85396 | -112.95614 | 23801 ft | 336 kts | 267° |
| 2026-04-19 02:29 | 36.85228 | -112.98524 | 23707 ft | 336 kts | 267° |
| 2026-04-19 02:29 | 36.85060 | -113.01431 | 23590 ft | 335 kts | 267° |
| 2026-04-19 02:30 | 36.84893 | -113.04307 | 23478 ft | 335 kts | 267° |
| 2026-04-19 02:30 | 36.84725 | -113.07201 | 23379 ft | 334 kts | 267° |
| 2026-04-19 02:30 | 36.84554 | -113.10099 | 23258 ft | 334 kts | 267° |
| 2026-04-19 02:30 | 36.84385 | -113.12989 | 23136 ft | 333 kts | 267° |
| 2026-04-19 02:31 | 36.84215 | -113.15874 | 23042 ft | 332 kts | 266° |
| 2026-04-19 02:31 | 36.84045 | -113.18713 | 23204 ft | 326 kts | 266° |
| 2026-04-19 02:31 | 36.83876 | -113.21539 | 23379 ft | 327 kts | 267° |
| 2026-04-19 02:31 | 36.83708 | -113.24368 | 23525 ft | 328 kts | 266° |
| 2026-04-19 02:32 | 36.83538 | -113.27208 | 23670 ft | 329 kts | 267° |
| 2026-04-19 02:32 | 36.83366 | -113.30059 | 23801 ft | 330 kts | 266° |
| 2026-04-19 02:32 | 36.83193 | -113.32921 | 23936 ft | 330 kts | 266° |
| 2026-04-19 02:32 | 36.83018 | -113.35781 | 24063 ft | 331 kts | 266° |
| 2026-04-19 02:33 | 36.82843 | -113.38641 | 24178 ft | 331 kts | 266° |
| 2026-04-19 02:33 | 36.82668 | -113.41508 | 24299 ft | 331 kts | 266° |
| 2026-04-19 02:33 | 36.82495 | -113.44338 | 24420 ft | 331 kts | 266° |
| 2026-04-19 02:33 | 36.82316 | -113.47212 | 24540 ft | 332 kts | 266° |
| 2026-04-19 02:34 | 36.82138 | -113.50085 | 24648 ft | 332 kts | 266° |
| 2026-04-19 02:34 | 36.81905 | -113.52955 | 24752 ft | 333 kts | 261° |
| 2026-04-19 02:34 | 36.81138 | -113.55696 | 24782 ft | 340 kts | 244° |
| 2026-04-19 02:34 | 36.79781 | -113.58188 | 24626 ft | 356 kts | 234° |
| 2026-04-19 02:35 | 36.78186 | -113.60562 | 24395 ft | 356 kts | 232° |
| 2026-04-19 02:35 | 36.76609 | -113.62920 | 24163 ft | 351 kts | 234° |
| 2026-04-19 02:35 | 36.75155 | -113.65347 | 23883 ft | 347 kts | 236° |
| 2026-04-19 02:35 | 36.73724 | -113.67786 | 23366 ft | 348 kts | 235° |
| 2026-04-19 02:36 | 36.72848 | -113.69220 | 23121 ft | 346 kts | 234° |
| 2026-04-19 02:37 | 36.71860 | -113.70796 | 22819 ft | 345 kts | 234° |
| 2026-04-19 02:37 | 36.70669 | -113.72695 | 22461 ft | 343 kts | 234° |
| 2026-04-19 02:38 | 36.69745 | -113.74192 | 22192 ft | 342 kts | 234° |
| 2026-04-19 02:38 | 36.68312 | -113.76542 | 21755 ft | 340 kts | 234° |
| 2026-04-19 02:38 | 36.67365 | -113.78089 | 21467 ft | 338 kts | 234° |
| 2026-04-19 02:38 | 36.66193 | -113.79991 | 21115 ft | 337 kts | 234° |
| 2026-04-19 02:40 | 36.65259 | -113.81498 | 20883 ft | 334 kts | 234° |
| 2026-04-19 02:41 | 36.63842 | -113.83787 | 20461 ft | 333 kts | 233° |
| 2026-04-19 02:41 | 36.62437 | -113.86068 | 20073 ft | 330 kts | 233° |
| 2026-04-19 02:41 | 36.61059 | -113.88302 | 19690 ft | 329 kts | 233° |
| 2026-04-19 02:41 | 36.59673 | -113.90550 | 19303 ft | 326 kts | 233° |
| 2026-04-19 02:42 | 36.58291 | -113.92784 | 18914 ft | 325 kts | 233° |
| 2026-04-19 02:42 | 36.56915 | -113.95000 | 18564 ft | 323 kts | 233° |
| 2026-04-19 02:42 | 36.55545 | -113.97209 | 18182 ft | 321 kts | 233° |
| 2026-04-19 02:42 | 36.54190 | -113.99398 | 17777 ft | 319 kts | 233° |
| 2026-04-19 02:43 | 36.52839 | -114.01577 | 17366 ft | 317 kts | 233° |
| 2026-04-19 02:43 | 36.51495 | -114.03743 | 16965 ft | 315 kts | 233° |
| 2026-04-19 02:43 | 36.50161 | -114.05895 | 16580 ft | 313 kts | 233° |
| 2026-04-19 02:43 | 36.48833 | -114.08033 | 16207 ft | 312 kts | 232° |
| 2026-04-19 02:44 | 36.47506 | -114.10161 | 15819 ft | 311 kts | 232° |
| 2026-04-19 02:44 | 36.47395 | -114.10338 | 15791 ft | 310 kts | 232° |
| 2026-04-19 02:45 | 36.46168 | -114.12310 | 15412 ft | 307 kts | 232° |
| 2026-04-19 02:45 | 36.44868 | -114.14404 | 14694 ft | 304 kts | 232° |
| 2026-04-19 02:45 | 36.43594 | -114.16446 | 13926 ft | 302 kts | 232° |
| 2026-04-19 02:46 | 36.42311 | -114.18501 | 13113 ft | 299 kts | 232° |
| 2026-04-19 02:46 | 36.41052 | -114.20523 | 12457 ft | 291 kts | 232° |
| 2026-04-19 02:46 | 36.39838 | -114.22471 | 12162 ft | 282 kts | 231° |
| 2026-04-19 02:46 | 36.38623 | -114.24417 | 12038 ft | 289 kts | 232° |
| 2026-04-19 02:47 | 36.37380 | -114.26404 | 11933 ft | 292 kts | 231° |
| 2026-04-19 02:47 | 36.36128 | -114.28406 | 11921 ft | 295 kts | 231° |
| 2026-04-19 02:47 | 36.34865 | -114.30426 | 11917 ft | 297 kts | 231° |
| 2026-04-19 02:47 | 36.33601 | -114.32448 | 11903 ft | 296 kts | 231° |
| 2026-04-19 02:48 | 36.32338 | -114.34466 | 11879 ft | 296 kts | 231° |
| 2026-04-19 02:48 | 36.31090 | -114.36455 | 11879 ft | 296 kts | 231° |
| 2026-04-19 02:48 | 36.29810 | -114.38494 | 11873 ft | 296 kts | 231° |
| 2026-04-19 02:48 | 36.28563 | -114.40484 | 11875 ft | 297 kts | 231° |
| 2026-04-19 02:49 | 36.27295 | -114.42506 | 11879 ft | 297 kts | 231° |
| 2026-04-19 02:49 | 36.26034 | -114.44516 | 11863 ft | 293 kts | 231° |
| 2026-04-19 02:49 | 36.24769 | -114.46525 | 11871 ft | 298 kts | 231° |
| 2026-04-19 02:49 | 36.23531 | -114.48578 | 11858 ft | 297 kts | 238° |
| 2026-04-19 02:50 | 36.22534 | -114.50820 | 11846 ft | 298 kts | 233° |
| 2026-04-19 02:50 | 36.21080 | -114.52619 | 11860 ft | 296 kts | 217° |
| 2026-04-19 02:50 | 36.19407 | -114.54116 | 11874 ft | 297 kts | 214° |
| 2026-04-19 02:51 | 36.16003 | -114.56941 | 11571 ft | 290 kts | 213° |
| 2026-04-19 02:51 | 36.14385 | -114.58278 | 11070 ft | 279 kts | 213° |
| 2026-04-19 02:51 | 36.12754 | -114.59637 | 10254 ft | 283 kts | 212° |
| 2026-04-19 02:51 | 36.11145 | -114.61004 | 9576 ft | 279 kts | 213° |
| 2026-04-19 02:52 | 36.09554 | -114.62369 | 8848 ft | 278 kts | 213° |
| 2026-04-19 02:52 | 36.07963 | -114.63734 | 8367 ft | 277 kts | 213° |
| 2026-04-19 02:52 | 36.06378 | -114.65083 | 8077 ft | 276 kts | 213° |
| 2026-04-19 02:52 | 36.04799 | -114.66423 | 7770 ft | 275 kts | 213° |
| 2026-04-19 02:53 | 36.03218 | -114.67754 | 7459 ft | 274 kts | 213° |
| 2026-04-19 02:53 | 36.01641 | -114.69076 | 7162 ft | 274 kts | 213° |
| 2026-04-19 02:53 | 36.00068 | -114.70394 | 6866 ft | 273 kts | 213° |
| 2026-04-19 02:53 | 35.98504 | -114.71695 | 6607 ft | 270 kts | 213° |
| 2026-04-19 02:54 | 35.97019 | -114.73088 | 6240 ft | 270 kts | 224° |
| 2026-04-19 02:54 | 35.95814 | -114.74852 | 5941 ft | 268 kts | 232° |
| 2026-04-19 02:54 | 35.94697 | -114.76701 | 5590 ft | 268 kts | 233° |
| 2026-04-19 02:54 | 35.93702 | -114.78636 | 5241 ft | 267 kts | 247° |
| 2026-04-19 02:55 | 35.93104 | -114.80752 | 5151 ft | 258 kts | 253° |
| 2026-04-19 02:55 | 35.92618 | -114.82902 | 5157 ft | 265 kts | 259° |
| 2026-04-19 02:55 | 35.92625 | -114.85185 | 5177 ft | 267 kts | 281° |
| 2026-04-19 02:55 | 35.93084 | -114.87404 | 5198 ft | 267 kts | 285° |
| 2026-04-19 02:56 | 35.93457 | -114.89659 | 5197 ft | 268 kts | 277° |
| 2026-04-19 02:56 | 35.93552 | -114.91955 | 5198 ft | 268 kts | 270° |
| 2026-04-19 02:56 | 35.93563 | -114.94258 | 5201 ft | 268 kts | 271° |
| 2026-04-19 02:56 | 35.93601 | -114.96533 | 5203 ft | 269 kts | 271° |
| 2026-04-19 02:57 | 35.93643 | -114.98837 | 5203 ft | 268 kts | 271° |
| 2026-04-19 02:57 | 35.93689 | -115.01138 | 5256 ft | 268 kts | 271° |
| 2026-04-19 02:57 | 35.93695 | -115.03428 | 5224 ft | 269 kts | 278° |
| 2026-04-19 02:57 | 35.94164 | -115.05672 | 5241 ft | 269 kts | 287° |
| 2026-04-19 02:58 | 35.94771 | -115.07850 | 5236 ft | 264 kts | 289° |
| 2026-04-19 02:58 | 35.95374 | -115.09913 | 5262 ft | 246 kts | 289° |
| 2026-04-19 02:58 | 35.95939 | -115.11829 | 5237 ft | 228 kts | 289° |
| 2026-04-19 02:58 | 35.96476 | -115.13641 | 5096 ft | 224 kts | 289° |
| 2026-04-19 02:59 | 35.97005 | -115.15437 | 4789 ft | 222 kts | 289° |
| 2026-04-19 02:59 | 35.97481 | -115.17210 | 4425 ft | 221 kts | 279° |
| 2026-04-19 02:59 | 35.97291 | -115.19042 | 4180 ft | 209 kts | 248° |
| 2026-04-19 02:59 | 35.96983 | -115.20722 | 4169 ft | 202 kts | 276° |
| 2026-04-19 03:00 | 35.97547 | -115.22342 | 4002 ft | 216 kts | 318° |
| 2026-04-19 03:00 | 35.98882 | -115.22870 | 3899 ft | 202 kts | 10° |
| 2026-04-19 03:00 | 36.00040 | -115.22073 | 3710 ft | 183 kts | 44° |
| 2026-04-19 03:00 | 36.00803 | -115.21078 | 3954 ft | 146 kts | 44° |
| 2026-04-19 03:01 | 36.01662 | -115.20323 | 3657 ft | 155 kts | 28° |
| 2026-04-19 03:01 | 36.02625 | -115.19781 | 3419 ft | 150 kts | 22° |
| 2026-04-19 03:01 | 36.03594 | -115.19290 | 3215 ft | 151 kts | 23° |
| 2026-04-19 03:01 | 36.04552 | -115.18742 | 3024 ft | 152 kts | 26° |
| 2026-04-19 03:02 | 36.05513 | -115.18148 | 2728 ft | 153 kts | 25° |
| 2026-04-19 03:02 | 36.06475 | -115.17606 | 2483 ft | 152 kts | 23° |
| 2026-04-19 03:02 | 36.07447 | -115.17079 | 2271 ft | 152 kts | 22° |
| 2026-04-19 03:02 | 36.08407 | -115.16538 | 2147 ft | 145 kts | 25° |
| 2026-04-19 03:03 | 36.09255 | -115.16053 | 2127 ft | 122 kts | 25° |
| 2026-04-19 03:03 | 36.09749 | -115.15762 | 2111 ft | 39 kts | 25° |
| 2026-04-19 03:03 | 36.09906 | -115.15661 | 2110 ft | 15 kts | 52° |
| 2026-04-19 03:03 | 36.09915 | -115.15581 | 2108 ft | 3 kts | 109° |
| 2026-04-19 03:04 | 36.09912 | -115.15574 | 2108 ft | 2 kts | 114° |
| 2026-04-19 03:04 | 36.09898 | -115.15529 | 2106 ft | 9 kts | 111° |
| 2026-04-19 03:04 | 36.09866 | -115.15439 | 2103 ft | 13 kts | 118° |
| 2026-04-19 03:04 | 36.09829 | -115.15335 | 2102 ft | 14 kts | 109° |
| 2026-04-19 03:05 | 36.09796 | -115.15245 | 2105 ft | 10 kts | 120° |
| 2026-04-19 03:05 | 36.09759 | -115.15209 | 2106 ft | 5 kts | 166° |
| 2026-04-19 03:05 | 36.09702 | -115.15220 | 2106 ft | 12 kts | 202° |
| 2026-04-19 03:05 | 36.09589 | -115.15285 | 2106 ft | 23 kts | 204° |
| 2026-04-19 03:06 | 36.09446 | -115.15368 | 2107 ft | 23 kts | 205° |
| 2026-04-19 03:06 | 36.09305 | -115.15451 | 2107 ft | 22 kts | 205° |
| 2026-04-19 03:06 | 36.09171 | -115.15525 | 2108 ft | 20 kts | 204° |
| 2026-04-19 03:06 | 36.09050 | -115.15597 | 2109 ft | 19 kts | 206° |
| 2026-04-19 03:07 | 36.08935 | -115.15665 | 2111 ft | 18 kts | 206° |
| 2026-04-19 03:07 | 36.08829 | -115.15720 | 2113 ft | 14 kts | 205° |
| 2026-04-19 03:07 | 36.08752 | -115.15765 | 2118 ft | 11 kts | 205° |
| 2026-04-19 03:07 | 36.08681 | -115.15787 | 2120 ft | 11 kts | 177° |
| 2026-04-19 03:08 | 36.08606 | -115.15754 | 2116 ft | 12 kts | 155° |
| 2026-04-19 03:08 | 36.08538 | -115.15715 | 2114 ft | 10 kts | 156° |
| 2026-04-19 03:08 | 36.08472 | -115.15676 | 2111 ft | 11 kts | 155° |
| 2026-04-19 03:08 | 36.08396 | -115.15632 | 2110 ft | 13 kts | 155° |
| 2026-04-19 03:09 | 36.08318 | -115.15588 | 2109 ft | 12 kts | 155° |
| 2026-04-19 03:09 | 36.08246 | -115.15545 | 2108 ft | 11 kts | 153° |
| 2026-04-19 03:09 | 36.08181 | -115.15507 | 2108 ft | 10 kts | 157° |
| 2026-04-19 03:09 | 36.08094 | -115.15459 | 2107 ft | 19 kts | 156° |
| 2026-04-19 03:10 | 36.07984 | -115.15396 | 2107 ft | 15 kts | 157° |
| 2026-04-19 03:10 | 36.07889 | -115.15318 | 2108 ft | 15 kts | 116° |
| 2026-04-19 03:10 | 36.07878 | -115.15198 | 2108 ft | 15 kts | 92° |
| 2026-04-19 03:10 | 36.07875 | -115.15063 | 2108 ft | 16 kts | 91° |
| 2026-04-19 03:11 | 36.07865 | -115.14899 | 2107 ft | 21 kts | 95° |
| 2026-04-19 03:11 | 36.07851 | -115.14714 | 2106 ft | 22 kts | 95° |
| 2026-04-19 03:11 | 36.07839 | -115.14525 | 2106 ft | 22 kts | 94° |
| 2026-04-19 03:11 | 36.07829 | -115.14337 | 2105 ft | 22 kts | 91° |
| 2026-04-19 03:12 | 36.07826 | -115.14150 | 2104 ft | 21 kts | 90° |
| 2026-04-19 03:12 | 36.07827 | -115.13972 | 2103 ft | 20 kts | 90° |
| 2026-04-19 03:12 | 36.07829 | -115.13827 | 2102 ft | 0 kts | 90° |
| 2026-04-19 03:12 | 36.07829 | -115.13815 | 2102 ft | 4 kts | 90° |
| 2026-04-19 03:13 | 36.07829 | -115.13777 | 2102 ft | 5 kts | 90° |
| 2026-04-19 03:13 | 36.07829 | -115.13727 | 2102 ft | 7 kts | 90° |
| 2026-04-19 03:13 | 36.07828 | -115.13665 | 2102 ft | 8 kts | 90° |
| 2026-04-19 03:13 | 36.07828 | -115.13594 | 2101 ft | 9 kts | 90° |
| 2026-04-19 03:14 | 36.07828 | -115.13477 | 2100 ft | 17 kts | 90° |
| 2026-04-19 03:14 | 36.07830 | -115.13317 | 2098 ft | 20 kts | 86° |
| 2026-04-19 03:14 | 36.07828 | -115.13143 | 2093 ft | 21 kts | 92° |
| 2026-04-19 03:14 | 36.07847 | -115.13039 | 2089 ft | 8 kts | 36° |
| 2026-04-19 03:15 | 36.07907 | -115.13009 | 2087 ft | 11 kts | 12° |
| 2026-04-19 03:15 | 36.07984 | -115.13003 | 2087 ft | 11 kts | 359° |
| 2026-04-19 03:15 | 36.08055 | -115.13005 | 2087 ft | 10 kts | 359° |
| 2026-04-19 03:15 | 36.08110 | -115.13006 | 2087 ft | 0 kts | 1° |